Observation data for Endee on 01/20/2019      Previous  Date  Next       Current Mesonet Observations  Soil Data  Daily Summary Page  Observations in Plain Language
KEN1 200600Z 15012KT 01/M03 A3021 RMK A01 T00111026  RH  077%=      5-min Rain = 0
KEN1 200601Z 15013KT 01/M03 A3021 RMK A01 T00101026  RH  077%=      5-min Rain = 0
KEN1 200602Z 15013KT 01/M03 A3021 RMK A01 T00091027  RH  077%=      5-min Rain = 0
KEN1 200603Z 15013KT 01/M03 A3021 RMK A01 T00101028  RH  076%=      5-min Rain = 0
KEN1 200604Z 15014KT 01/M03 A3021 RMK A01 T00101029  RH  075%=      5-min Rain = 0
KEN1 200605Z 16012KT 01/M03 A3021 RMK A01 T00101030  RH  075%=      5-min Rain = 0
KEN1 200606Z 16012KT 01/M03 A3021 RMK A01 T00111030  RH  074%=      5-min Rain = 0
KEN1 200607Z 16012KT 01/M03 A3021 RMK A01 T00111031  RH  073%=      5-min Rain = 0
KEN1 200608Z 16012KT 01/M03 A302 RMK A01 T00121032  RH  072%=      5-min Rain = 0
KEN1 200609Z 16011KT 01/M03 A302 RMK A01 T00131033  RH  071%=      5-min Rain = 0
KEN1 200610Z 16011KT 01/M03 A302 RMK A01 T00141034  RH  071%=      5-min Rain = 0
KEN1 200611Z 16011KT 01/M03 A302 RMK A01 T00141034  RH  070%=      5-min Rain = 0
KEN1 200612Z 16011KT 01/M04 A302 RMK A01 T00131035  RH  071%=      5-min Rain = 0
KEN1 200613Z 15011KT 01/M04 A3021 RMK A01 T00121035  RH  071%=      5-min Rain = 0
KEN1 200614Z 15012KT 01/M04 A3021 RMK A01 T00101035  RH  072%=      5-min Rain = 0
KEN1 200615Z 15011KT 01/M04 A3021 RMK A01 T00081035  RH  073%=      5-min Rain = 0
KEN1 200616Z 15011KT 01/M04 A3021 RMK A01 T00071035  RH  073%=      5-min Rain = 0
KEN1 200617Z 15012KT 01/M04 A3021 RMK A01 T00061035  RH  074%=      5-min Rain = 0
KEN1 200618Z 16011KT 01/M04 A3021 RMK A01 T00071035  RH  073%=      5-min Rain = 0
KEN1 200619Z 16010KT 01/M04 A3021 RMK A01 T00081036  RH  072%=      5-min Rain = 0
KEN1 200620Z 17009KT 01/M04 A3021 RMK A01 T00101037  RH  071%=      5-min Rain = 0
KEN1 200621Z 17010KT 01/M04 A3021 RMK A01 T00111037  RH  070%=      5-min Rain = 0
KEN1 200622Z 17010KT 01/M04 A3021 RMK A01 T00111038  RH  070%=      5-min Rain = 0
KEN1 200623Z 17009KT 01/M04 A3021 RMK A01 T00111038  RH  070%=      5-min Rain = 0
KEN1 200624Z 16009KT 01/M04 A3021 RMK A01 T00111038  RH  070%=      5-min Rain = 0
KEN1 200625Z 16010KT 01/M04 A3021 RMK A01 T00101038  RH  070%=      5-min Rain = 0
KEN1 200626Z 16010KT 01/M04 A3021 RMK A01 T00091038  RH  071%=      5-min Rain = 0
KEN1 200627Z 16010KT 01/M04 A3021 RMK A01 T00091038  RH  071%=      5-min Rain = 0
KEN1 200628Z 16010KT 01/M04 A3021 RMK A01 T00091038  RH  071%=      5-min Rain = 0
KEN1 200629Z 16011KT 01/M04 A3021 RMK A01 T00101037  RH  071%=      5-min Rain = 0
KEN1 200630Z 16011KT 01/M04 A3021 RMK A01 T00111036  RH  071%=      5-min Rain = 0
KEN1 200631Z 17012KT 01/M04 A3021 RMK A01 T00131036  RH  070%=      5-min Rain = 0
KEN1 200632Z 17012KT 01/M04 A3021 RMK A01 T00141036  RH  069%=      5-min Rain = 0
KEN1 200633Z 17011KT 02/M04 A3021 RMK A01 T00161036  RH  068%=      5-min Rain = 0
KEN1 200634Z 17011KT 02/M04 A3021 RMK A01 T00161037  RH  068%=      5-min Rain = 0
KEN1 200635Z 17010KT 02/M04 A3021 RMK A01 T00171037  RH  068%=      5-min Rain = 0
KEN1 200636Z 17010KT 02/M04 A3021 RMK A01 T00171037  RH  068%=      5-min Rain = 0
KEN1 200637Z 16009KT 02/M04 A3021 RMK A01 T00161037  RH  068%=      5-min Rain = 0
KEN1 200638Z 16009KT 01/M04 A3021 RMK A01 T00141037  RH  069%=      5-min Rain = 0
KEN1 200639Z 16009KT 01/M04 A3021 RMK A01 T00121037  RH  070%=      5-min Rain = 0
KEN1 200640Z 16010KT 01/M04 A3021 RMK A01 T00111037  RH  070%=      5-min Rain = 0
KEN1 200641Z 16010KT 01/M04 A3022 RMK A01 T00101037  RH  071%=      5-min Rain = 0
KEN1 200642Z 16010KT 01/M04 A3022 RMK A01 T00101037  RH  071%=      5-min Rain = 0
KEN1 200643Z 16009KT 01/M04 A3022 RMK A01 T00101037  RH  071%=      5-min Rain = 0
KEN1 200644Z 16009KT 01/M04 A3021 RMK A01 T00101037  RH  071%=      5-min Rain = 0
KEN1 200645Z 17009KT 01/M04 A3021 RMK A01 T00101037  RH  071%=      5-min Rain = 0
KEN1 200646Z 17010KT 01/M04 A3021 RMK A01 T00101036  RH  071%=      5-min Rain = 0
KEN1 200647Z 16010KT 01/M04 A3021 RMK A01 T00101036  RH  071%=      5-min Rain = 0
KEN1 200648Z 16010KT 01/M04 A3021 RMK A01 T00101036  RH  071%=      5-min Rain = 0
KEN1 200649Z 16010KT 01/M04 A3021 RMK A01 T00101036  RH  072%=      5-min Rain = 0
KEN1 200650Z 16010KT 01/M04 A3021 RMK A01 T00101036  RH  072%=      5-min Rain = 0
KEN1 200651Z 16010KT 01/M04 A3021 RMK A01 T00091036  RH  072%=      5-min Rain = 0
KEN1 200652Z 16010KT 01/M04 A3021 RMK A01 T00081036  RH  073%=      5-min Rain = 0
KEN1 200653Z 16009KT 01/M04 A3021 RMK A01 T00071036  RH  073%=      5-min Rain = 0
KEN1 200654Z 16009KT 01/M04 A3021 RMK A01 T00071035  RH  073%=      5-min Rain = 0
KEN1 200655Z 16009KT 01/M04 A3021 RMK A01 T00071035  RH  074%=      5-min Rain = 0
KEN1 200656Z 16009KT 01/M04 A3021 RMK A01 T00061035  RH  074%=      5-min Rain = 0
KEN1 200657Z 15009KT 01/M04 A3021 RMK A01 T00051036  RH  074%=      5-min Rain = 0
KEN1 200658Z 15009KT 00/M04 A3021 RMK A01 T00041036  RH  075%=      5-min Rain = 0
KEN1 200659Z 15009KT 00/M04 A3021 RMK A01 T00021036  RH  075%=      5-min Rain = 0
KEN1 200700Z 15009KT 00/M04 A3021 RMK A01 T00021036  RH  076%=      5-min Rain = 0
KEN1 200701Z 15010KT 00/M04 A3021 RMK A01 T00011036  RH  076%=      5-min Rain = 0
KEN1 200702Z 15010KT 00/M04 A3021 RMK A01 T00011036  RH  076%=      5-min Rain = 0
KEN1 200703Z 15010KT 00/M04 A3021 RMK A01 T00011036  RH  076%=      5-min Rain = 0
KEN1 200704Z 15010KT 00/M04 A3021 RMK A01 T00011035  RH  076%=      5-min Rain = 0
KEN1 200705Z 15010KT 00/M04 A3021 RMK A01 T00011035  RH  077%=      5-min Rain = 0
KEN1 200706Z 15009KT 00/M04 A3021 RMK A01 T00011035  RH  077%=      5-min Rain = 0
KEN1 200707Z 15009KT 00/03 A302 RMK A01 T00000-34  RH  078%=      5-min Rain = 0
KEN1 200708Z 15008KT M00/M03 A302 RMK A01 T10011034  RH  078%=      5-min Rain = 0
KEN1 200709Z 15008KT M00/M03 A302 RMK A01 T10011034  RH  078%=      5-min Rain = 0
KEN1 200710Z 14009KT M00/M03 A302 RMK A01 T10011034  RH  078%=      5-min Rain = 0
KEN1 200711Z 14009KT M00/M03 A302 RMK A01 T10021034  RH  079%=      5-min Rain = 0
KEN1 200712Z 14010KT M00/M04 A302 RMK A01 T10021035  RH  079%=      5-min Rain = 0
KEN1 200713Z 14009KT M00/M03 A302 RMK A01 T10021034  RH  079%=      5-min Rain = 0
KEN1 200714Z 14010KT M00/M03 A302 RMK A01 T10021034  RH  078%=      5-min Rain = 0
KEN1 200715Z 14009KT M00/M04 A302 RMK A01 T10021035  RH  078%=      5-min Rain = 0
KEN1 200716Z 14010KT M00/M04 A302 RMK A01 T10021035  RH  078%=      5-min Rain = 0
KEN1 200717Z 14010KT M00/M04 A302 RMK A01 T10021035  RH  078%=      5-min Rain = 0
KEN1 200718Z 14010KT M00/M04 A302 RMK A01 T10011035  RH  078%=      5-min Rain = 0
KEN1 200719Z 14010KT M00/M04 A302 RMK A01 T10011035  RH  078%=      5-min Rain = 0
KEN1 200720Z 14010KT 00/04 A3021 RMK A01 T00000-35  RH  077%=      5-min Rain = 0
KEN1 200721Z 14009KT 00/04 A3021 RMK A01 T00000-36  RH  077%=      5-min Rain = 0
KEN1 200722Z 14009KT 00/04 A3021 RMK A01 T00000-36  RH  077%=      5-min Rain = 0
KEN1 200723Z 14009KT M00/M04 A3021 RMK A01 T10011036  RH  077%=      5-min Rain = 0
KEN1 200724Z 14009KT M00/M04 A3021 RMK A01 T10011037  RH  077%=      5-min Rain = 0
KEN1 200725Z 15010KT M00/M04 A3021 RMK A01 T10011037  RH  077%=      5-min Rain = 0
KEN1 200726Z 15010KT 00/04 A302 RMK A01 T00-00-38  RH  076%=      5-min Rain = 0
KEN1 200727Z 15010KT 00/M04 A302 RMK A01 T00021038  RH  075%=      5-min Rain = 0
KEN1 200728Z 15010KT 00/M04 A302 RMK A01 T00031038  RH  074%=      5-min Rain = 0
KEN1 200729Z 15010KT 00/M04 A302 RMK A01 T00031039  RH  074%=      5-min Rain = 0
KEN1 200730Z 15009KT 00/M04 A302 RMK A01 T00041039  RH  073%=      5-min Rain = 0
KEN1 200731Z 15009KT 00/M04 A302 RMK A01 T00041039  RH  073%=      5-min Rain = 0
KEN1 200732Z 14009KT 00/M04 A302 RMK A01 T00041039  RH  073%=      5-min Rain = 0
KEN1 200733Z 14009KT 00/M04 A302 RMK A01 T00041039  RH  073%=      5-min Rain = 0
KEN1 200734Z 14009KT 00/M04 A3021 RMK A01 T00031040  RH  073%=      5-min Rain = 0
KEN1 200735Z 14009KT 00/M04 A3021 RMK A01 T00031040  RH  073%=      5-min Rain = 0
KEN1 200736Z 14009KT 00/M04 A3021 RMK A01 T00031040  RH  073%=      5-min Rain = 0
KEN1 200737Z 14010KT 00/M04 A3021 RMK A01 T00031040  RH  073%=      5-min Rain = 0
KEN1 200738Z 14010KT 00/M04 A3021 RMK A01 T00031040  RH  073%=      5-min Rain = 0
KEN1 200739Z 14010KT 00/M04 A3021 RMK A01 T00031040  RH  073%=      5-min Rain = 0
KEN1 200740Z 14010KT 00/M04 A3021 RMK A01 T00041040  RH  072%=      5-min Rain = 0
KEN1 200741Z 14009KT 01/M04 A3021 RMK A01 T00051041  RH  071%=      5-min Rain = 0
KEN1 200742Z 15009KT 01/M04 A3021 RMK A01 T00051041  RH  071%=      5-min Rain = 0
KEN1 200743Z 15010KT 01/M04 A3021 RMK A01 T00061041  RH  071%=      5-min Rain = 0
KEN1 200744Z 15009KT 01/M04 A3021 RMK A01 T00051042  RH  071%=      5-min Rain = 0
KEN1 200745Z 15010KT 01/M04 A3021 RMK A01 T00061042  RH  071%=      5-min Rain = 0
KEN1 200746Z 14009KT 01/M04 A3021 RMK A01 T00051042  RH  071%=      5-min Rain = 0
KEN1 200747Z 14008KT 01/M04 A3021 RMK A01 T00051042  RH  071%=      5-min Rain = 0
KEN1 200748Z 14008KT 00/M04 A3021 RMK A01 T00041042  RH  071%=      5-min Rain = 0
KEN1 200749Z 14008KT 00/M04 A3021 RMK A01 T00031042  RH  072%=      5-min Rain = 0
KEN1 200750Z 14008KT 00/M04 A3021 RMK A01 T00031042  RH  072%=      5-min Rain = 0
KEN1 200751Z 14009KT 00/M04 A3021 RMK A01 T00021042  RH  072%=      5-min Rain = 0
KEN1 200752Z 14009KT 00/M04 A3021 RMK A01 T00021042  RH  072%=      5-min Rain = 0
KEN1 200753Z 14009KT 00/M04 A3021 RMK A01 T00031043  RH  071%=      5-min Rain = 0
KEN1 200754Z 14009KT 00/M04 A3021 RMK A01 T00041042  RH  071%=      5-min Rain = 0
KEN1 200755Z 14009KT 00/M04 A3021 RMK A01 T00041042  RH  071%=      5-min Rain = 0
KEN1 200756Z 14008KT 00/M04 A3021 RMK A01 T00041042  RH  071%=      5-min Rain = 0
KEN1 200757Z 14008KT 00/M04 A3021 RMK A01 T00041042  RH  071%=      5-min Rain = 0
KEN1 200758Z 14008KT 00/M04 A3021 RMK A01 T00031042  RH  072%=      5-min Rain = 0
KEN1 200759Z 14007KT 00/M04 A3021 RMK A01 T00021043  RH  072%=      5-min Rain = 0
KEN1 200800Z 13007KT 00/04 A3021 RMK A01 T00000-43  RH  073%=      5-min Rain = 0
KEN1 200801Z 14008KT 00/04 A3021 RMK A01 T00-00-42  RH  073%=      5-min Rain = 0
KEN1 200802Z 14008KT 00/04 A3021 RMK A01 T00-00-42  RH  074%=      5-min Rain = 0
KEN1 200803Z 14007KT 00/04 A3021 RMK A01 T00-00-41  RH  074%=      5-min Rain = 0
KEN1 200804Z 14008KT 00/04 A3021 RMK A01 T00-00-41  RH  074%=      5-min Rain = 0
KEN1 200805Z 14007KT 00/M04 A302 RMK A01 T00011041  RH  073%=      5-min Rain = 0
KEN1 200806Z 14008KT 00/M04 A302 RMK A01 T00021041  RH  073%=      5-min Rain = 0
KEN1 200807Z 14008KT 00/M04 A302 RMK A01 T00021041  RH  073%=      5-min Rain = 0
KEN1 200808Z 14008KT 00/M04 A302 RMK A01 T00031041  RH  072%=      5-min Rain = 0
KEN1 200809Z 14008KT 00/M04 A302 RMK A01 T00021041  RH  073%=      5-min Rain = 0
KEN1 200810Z 14008KT 00/M04 A302 RMK A01 T00021041  RH  073%=      5-min Rain = 0
KEN1 200811Z 14008KT 00/M04 A302 RMK A01 T00021041  RH  073%=      5-min Rain = 0
KEN1 200812Z 14008KT 00/M04 A302 RMK A01 T00021041  RH  073%=      5-min Rain = 0
KEN1 200813Z 14007KT 00/M04 A302 RMK A01 T00021041  RH  073%=      5-min Rain = 0
KEN1 200814Z 14007KT 00/M04 A302 RMK A01 T00011041  RH  073%=      5-min Rain = 0
KEN1 200815Z 14007KT 00/M04 A302 RMK A01 T00011041  RH  073%=      5-min Rain = 0
KEN1 200816Z 14008KT 00/04 A302 RMK A01 T00000-41  RH  074%=      5-min Rain = 0
KEN1 200817Z 14009KT M00/M04 A302 RMK A01 T10011041  RH  074%=      5-min Rain = 0
KEN1 200818Z 14009KT M00/M04 A302 RMK A01 T10011041  RH  075%=      5-min Rain = 0
KEN1 200819Z 14009KT M00/M04 A302 RMK A01 T10011041  RH  075%=      5-min Rain = 0
KEN1 200820Z 15009KT M00/M04 A302 RMK A01 T10011041  RH  074%=      5-min Rain = 0
KEN1 200821Z 14008KT 00/04 A302 RMK A01 T00-00-41  RH  074%=      5-min Rain = 0
KEN1 200822Z 14007KT M00/M04 A302 RMK A01 T10011040  RH  075%=      5-min Rain = 0
KEN1 200823Z 14007KT M00/M04 A302 RMK A01 T10021041  RH  075%=      5-min Rain = 0
KEN1 200824Z 14007KT M00/M04 A302 RMK A01 T10031041  RH  076%=      5-min Rain = 0
KEN1 200825Z 13007KT M00/M04 A302 RMK A01 T10041041  RH  076%=      5-min Rain = 0
KEN1 200826Z 13007KT M00/M04 A302 RMK A01 T10041041  RH  076%=      5-min Rain = 0
KEN1 200827Z 13008KT M01/M04 A302 RMK A01 T10061041  RH  077%=      5-min Rain = 0
KEN1 200828Z 13009KT M01/M04 A302 RMK A01 T10061040  RH  078%=      5-min Rain = 0
KEN1 200829Z 13009KT M01/M04 A302 RMK A01 T10061040  RH  078%=      5-min Rain = 0
KEN1 200830Z 13009KT M01/M04 A302 RMK A01 T10061040  RH  078%=      5-min Rain = 0
KEN1 200831Z 13009KT M01/M04 A302 RMK A01 T10061040  RH  078%=      5-min Rain = 0
KEN1 200832Z 14010KT M01/M04 A302 RMK A01 T10061040  RH  078%=      5-min Rain = 0
KEN1 200833Z 14009KT M01/M04 A302 RMK A01 T10061040  RH  078%=      5-min Rain = 0
KEN1 200834Z 14009KT M01/M04 A302 RMK A01 T10061039  RH  078%=      5-min Rain = 0
KEN1 200835Z 14009KT M01/M04 A302 RMK A01 T10051039  RH  078%=      5-min Rain = 0
KEN1 200836Z 14009KT M01/M04 A302 RMK A01 T10051039  RH  078%=      5-min Rain = 0
KEN1 200837Z 14008KT M01/M04 A302 RMK A01 T10051039  RH  078%=      5-min Rain = 0
KEN1 200838Z 14009KT M01/M04 A302 RMK A01 T10061039  RH  078%=      5-min Rain = 0
KEN1 200839Z 14009KT M01/M04 A302 RMK A01 T10061039  RH  079%=      5-min Rain = 0
KEN1 200840Z 14008KT M01/M04 A302 RMK A01 T10071039  RH  079%=      5-min Rain = 0
KEN1 200841Z 15008KT M01/M04 A302 RMK A01 T10071039  RH  079%=      5-min Rain = 0
KEN1 200842Z 15008KT M01/M04 A302 RMK A01 T10071038  RH  079%=      5-min Rain = 0
KEN1 200843Z 15008KT M01/M04 A302 RMK A01 T10061038  RH  079%=      5-min Rain = 0
KEN1 200844Z 15008KT M01/M04 A302 RMK A01 T10061038  RH  079%=      5-min Rain = 0
KEN1 200845Z 15008KT M01/M04 A302 RMK A01 T10061038  RH  079%=      5-min Rain = 0
KEN1 200846Z 15008KT M01/M04 A302 RMK A01 T10071038  RH  079%=      5-min Rain = 0
KEN1 200847Z 15008KT M01/M04 A302 RMK A01 T10071038  RH  080%=      5-min Rain = 0
KEN1 200848Z 15007KT M01/M04 A302 RMK A01 T10071038  RH  080%=      5-min Rain = 0
KEN1 200849Z 15007KT M01/M04 A302 RMK A01 T10081038  RH  080%=      5-min Rain = 0
KEN1 200850Z 15007KT M01/M04 A302 RMK A01 T10081037  RH  081%=      5-min Rain = 0
KEN1 200851Z 15007KT M01/M04 A302 RMK A01 T10081037  RH  081%=      5-min Rain = 0
KEN1 200852Z 15007KT M01/M04 A302 RMK A01 T10091038  RH  081%=      5-min Rain = 0
KEN1 200853Z 15007KT M01/M04 A302 RMK A01 T10091037  RH  081%=      5-min Rain = 0
KEN1 200854Z 15007KT M01/M04 A302 RMK A01 T10091038  RH  081%=      5-min Rain = 0
KEN1 200855Z 15007KT M01/M04 A302 RMK A01 T10091038  RH  081%=      5-min Rain = 0
KEN1 200856Z 15007KT M01/M04 A302 RMK A01 T10091038  RH  081%=      5-min Rain = 0
KEN1 200857Z 15007KT M01/M04 A302 RMK A01 T10091038  RH  081%=      5-min Rain = 0
KEN1 200858Z 15007KT M01/M04 A302 RMK A01 T10091038  RH  081%=      5-min Rain = 0
KEN1 200859Z 14007KT M01/M04 A302 RMK A01 T10101038  RH  081%=      5-min Rain = 0
KEN1 200900Z 14008KT M01/M04 A302 RMK A01 T10101038  RH  081%=      5-min Rain = 0
KEN1 200901Z 14008KT M01/M04 A302 RMK A01 T10111039  RH  081%=      5-min Rain = 0
KEN1 200902Z 14007KT M01/M04 A302 RMK A01 T10111039  RH  081%=      5-min Rain = 0
KEN1 200903Z 14007KT M01/M04 A302 RMK A01 T10111039  RH  081%=      5-min Rain = 0
KEN1 200904Z 14007KT M01/M04 A302 RMK A01 T10111039  RH  081%=      5-min Rain = 0
KEN1 200905Z 14007KT M01/M04 A302 RMK A01 T10101039  RH  081%=      5-min Rain = 0
KEN1 200906Z 14006KT M01/M04 A302 RMK A01 T10101038  RH  081%=      5-min Rain = 0
KEN1 200907Z 14007KT M01/M04 A302 RMK A01 T10111039  RH  081%=      5-min Rain = 0
KEN1 200908Z 14007KT M01/M04 A302 RMK A01 T10111039  RH  081%=      5-min Rain = 0
KEN1 200909Z 14007KT M01/M04 A302 RMK A01 T10111039  RH  081%=      5-min Rain = 0
KEN1 200910Z 14006KT M01/M04 A302 RMK A01 T10111039  RH  081%=      5-min Rain = 0
KEN1 200911Z 14006KT M01/M04 A302 RMK A01 T10121039  RH  081%=      5-min Rain = 0
KEN1 200912Z 14006KT M01/M04 A302 RMK A01 T10121040  RH  082%=      5-min Rain = 0
KEN1 200913Z 14006KT M01/M04 A302 RMK A01 T10121040  RH  081%=      5-min Rain = 0
KEN1 200914Z 14007KT M01/M04 A3021 RMK A01 T10121039  RH  082%=      5-min Rain = 0
KEN1 200915Z 14006KT M01/M04 A3021 RMK A01 T10111039  RH  081%=      5-min Rain = 0
KEN1 200916Z 14006KT M01/M04 A302 RMK A01 T10111039  RH  081%=      5-min Rain = 0
KEN1 200917Z 14007KT M01/M04 A302 RMK A01 T10101039  RH  081%=      5-min Rain = 0
KEN1 200918Z 14007KT M01/M04 A302 RMK A01 T10101039  RH  080%=      5-min Rain = 0
KEN1 200919Z 14007KT M01/M04 A302 RMK A01 T10091039  RH  080%=      5-min Rain = 0
KEN1 200920Z 14007KT M01/M04 A302 RMK A01 T10081039  RH  080%=      5-min Rain = 0
KEN1 200921Z 14007KT M01/M04 A302 RMK A01 T10091040  RH  079%=      5-min Rain = 0
KEN1 200922Z 14007KT M01/M04 A302 RMK A01 T10091040  RH  079%=      5-min Rain = 0
KEN1 200923Z 14007KT M01/M04 A302 RMK A01 T10091040  RH  079%=      5-min Rain = 0
KEN1 200924Z 14006KT M01/M04 A302 RMK A01 T10081039  RH  079%=      5-min Rain = 0
KEN1 200925Z 14007KT M01/M04 A302 RMK A01 T10091040  RH  079%=      5-min Rain = 0
KEN1 200926Z 14006KT M01/M04 A302 RMK A01 T10081040  RH  079%=      5-min Rain = 0
KEN1 200927Z 14006KT M01/M04 A302 RMK A01 T10081040  RH  079%=      5-min Rain = 0
KEN1 200928Z 14006KT M01/M04 A302 RMK A01 T10081040  RH  079%=      5-min Rain = 0
KEN1 200929Z 14006KT M01/M04 A302 RMK A01 T10081040  RH  079%=      5-min Rain = 0
KEN1 200930Z 14006KT M01/M04 A302 RMK A01 T10081040  RH  079%=      5-min Rain = 0
KEN1 200931Z 14006KT M01/M04 A302 RMK A01 T10081040  RH  079%=      5-min Rain = 0
KEN1 200932Z 14007KT M01/M04 A302 RMK A01 T10081040  RH  079%=      5-min Rain = 0
KEN1 200933Z 13007KT M01/M04 A302 RMK A01 T10091040  RH  079%=      5-min Rain = 0
KEN1 200934Z 13006KT M01/M04 A302 RMK A01 T10091041  RH  079%=      5-min Rain = 0
KEN1 200935Z 13007KT M01/M04 A302 RMK A01 T10091041  RH  079%=      5-min Rain = 0
KEN1 200936Z 13006KT M01/M04 A302 RMK A01 T10091041  RH  079%=      5-min Rain = 0
KEN1 200937Z 13006KT M01/M04 A302 RMK A01 T10091040  RH  079%=      5-min Rain = 0
KEN1 200938Z 13006KT M01/M04 A302 RMK A01 T10091041  RH  079%=      5-min Rain = 0
KEN1 200939Z 13006KT M01/M04 A302 RMK A01 T10091041  RH  079%=      5-min Rain = 0
KEN1 200940Z 13006KT M01/M04 A302 RMK A01 T10091041  RH  079%=      5-min Rain = 0
KEN1 200941Z 14005KT M01/M04 A302 RMK A01 T10091041  RH  079%=      5-min Rain = 0
KEN1 200942Z 14005KT M01/M04 A302 RMK A01 T10091041  RH  079%=      5-min Rain = 0
KEN1 200943Z 14006KT M01/M04 A302 RMK A01 T10091041  RH  079%=      5-min Rain = 0
KEN1 200944Z 14006KT M01/M04 A302 RMK A01 T10091041  RH  079%=      5-min Rain = 0
KEN1 200945Z 14005KT M01/M04 A302 RMK A01 T10091041  RH  079%=      5-min Rain = 0
KEN1 200946Z 14006KT M01/M04 A3021 RMK A01 T10101042  RH  079%=      5-min Rain = 0
KEN1 200947Z 14006KT M01/M04 A3021 RMK A01 T10101041  RH  079%=      5-min Rain = 0
KEN1 200948Z 14006KT M01/M04 A3021 RMK A01 T10091041  RH  079%=      5-min Rain = 0
KEN1 200949Z 14006KT M01/M04 A3021 RMK A01 T10091042  RH  079%=      5-min Rain = 0
KEN1 200950Z 15005KT M01/M04 A3021 RMK A01 T10091041  RH  079%=      5-min Rain = 0
KEN1 200951Z 15005KT M01/M04 A3021 RMK A01 T10091041  RH  078%=      5-min Rain = 0
KEN1 200952Z 15005KT M01/M04 A3021 RMK A01 T10091041  RH  078%=      5-min Rain = 0
KEN1 200953Z 15005KT M01/M04 A3021 RMK A01 T10091042  RH  078%=      5-min Rain = 0
KEN1 200954Z 15005KT M01/M04 A3021 RMK A01 T10091042  RH  078%=      5-min Rain = 0
KEN1 200955Z 15005KT M01/M04 A3021 RMK A01 T10081042  RH  078%=      5-min Rain = 0
KEN1 200956Z 15005KT M01/M04 A302 RMK A01 T10091042  RH  078%=      5-min Rain = 0
KEN1 200957Z 15005KT M01/M04 A302 RMK A01 T10091043  RH  078%=      5-min Rain = 0
KEN1 200958Z 15006KT M01/M04 A302 RMK A01 T10101043  RH  078%=      5-min Rain = 0
KEN1 200959Z 15006KT M01/M04 A302 RMK A01 T10101043  RH  078%=      5-min Rain = 0
KEN1 201000Z 14006KT M01/M04 A302 RMK A01 T10111043  RH  078%=      5-min Rain = 0
KEN1 201001Z 14006KT M01/M04 A302 RMK A01 T10111043  RH  079%=      5-min Rain = 0
KEN1 201002Z 14007KT M01/M04 A302 RMK A01 T10111043  RH  079%=      5-min Rain = 0
KEN1 201003Z 15006KT M01/M04 A302 RMK A01 T10111043  RH  079%=      5-min Rain = 0
KEN1 201004Z 15007KT M01/M04 A302 RMK A01 T10121043  RH  079%=      5-min Rain = 0
KEN1 201005Z 16007KT M01/M04 A302 RMK A01 T10121043  RH  079%=      5-min Rain = 0
KEN1 201006Z 16006KT M01/M04 A302 RMK A01 T10121043  RH  079%=      5-min Rain = 0
KEN1 201007Z 16006KT M01/M04 A302 RMK A01 T10121043  RH  079%=      5-min Rain = 0
KEN1 201008Z 16005KT M01/M04 A302 RMK A01 T10121044  RH  079%=      5-min Rain = 0
KEN1 201009Z 16004KT M01/M04 A302 RMK A01 T10121044  RH  079%=      5-min Rain = 0
KEN1 201010Z 16004KT M01/M04 A302 RMK A01 T10121044  RH  079%=      5-min Rain = 0
KEN1 201011Z 16005KT M01/M04 A302 RMK A01 T10131044  RH  080%=      5-min Rain = 0
KEN1 201012Z 16006KT M01/M04 A302 RMK A01 T10141044  RH  080%=      5-min Rain = 0
KEN1 201013Z 16006KT M02/M04 A302 RMK A01 T10151044  RH  081%=      5-min Rain = 0
KEN1 201014Z 16006KT M02/M04 A302 RMK A01 T10161044  RH  081%=      5-min Rain = 0
KEN1 201015Z 16006KT M02/M04 A302 RMK A01 T10171044  RH  082%=      5-min Rain = 0
KEN1 201016Z 16006KT M02/M04 A302 RMK A01 T10181044  RH  082%=      5-min Rain = 0
KEN1 201017Z 17005KT M02/M04 A302 RMK A01 T10191044  RH  083%=      5-min Rain = 0
KEN1 201018Z 17004KT M02/M04 A302 RMK A01 T10191044  RH  083%=      5-min Rain = 0
KEN1 201019Z 18004KT M02/M04 A302 RMK A01 T10201044  RH  083%=      5-min Rain = 0
KEN1 201020Z 18004KT M02/M04 A302 RMK A01 T10201044  RH  083%=      5-min Rain = 0
KEN1 201021Z 18004KT M02/M05 A302 RMK A01 T10211045  RH  084%=      5-min Rain = 0
KEN1 201022Z 17004KT M02/M05 A302 RMK A01 T10211045  RH  084%=      5-min Rain = 0
KEN1 201023Z 17004KT M02/M05 A302 RMK A01 T10221045  RH  084%=      5-min Rain = 0
KEN1 201024Z 18004KT M02/M05 A302 RMK A01 T10221045  RH  084%=      5-min Rain = 0
KEN1 201025Z 18004KT M02/M05 A302 RMK A01 T10231045  RH  085%=      5-min Rain = 0
KEN1 201026Z 19004KT M02/M05 A302 RMK A01 T10231045  RH  085%=      5-min Rain = 0
KEN1 201027Z 20004KT M02/M05 A302 RMK A01 T10231045  RH  085%=      5-min Rain = 0
KEN1 201028Z 20004KT M02/M05 A302 RMK A01 T10231045  RH  085%=      5-min Rain = 0
KEN1 201029Z 20004KT M02/M05 A302 RMK A01 T10231045  RH  085%=      5-min Rain = 0
KEN1 201030Z 20004KT M02/M05 A302 RMK A01 T10231045  RH  085%=      5-min Rain = 0
KEN1 201031Z 20004KT M02/M05 A302 RMK A01 T10231045  RH  085%=      5-min Rain = 0
KEN1 201032Z 19004KT M02/M05 A302 RMK A01 T10231046  RH  085%=      5-min Rain = 0
KEN1 201033Z 19003KT M02/M05 A302 RMK A01 T10231046  RH  084%=      5-min Rain = 0
KEN1 201034Z 19003KT M02/M05 A302 RMK A01 T10241047  RH  084%=      5-min Rain = 0
KEN1 201035Z 19003KT M02/M05 A302 RMK A01 T10241046  RH  085%=      5-min Rain = 0
KEN1 201036Z 20003KT M02/M05 A302 RMK A01 T10241046  RH  085%=      5-min Rain = 0
KEN1 201037Z 22003KT M02/M05 A3019 RMK A01 T10241046  RH  085%=      5-min Rain = 0
KEN1 201038Z 22003KT M02/M05 A3019 RMK A01 T10241047  RH  085%=      5-min Rain = 0
KEN1 201039Z 23003KT M02/M05 A3019 RMK A01 T10241047  RH  085%=      5-min Rain = 0
KEN1 201040Z 23003KT M02/M05 A3019 RMK A01 T10241046  RH  085%=      5-min Rain = 0
KEN1 201041Z 23003KT M02/M05 A3019 RMK A01 T10241046  RH  085%=      5-min Rain = 0
KEN1 201042Z 23002KT M03/M05 A3019 RMK A01 T10251047  RH  085%=      5-min Rain = 0
KEN1 201043Z 22002KT M03/M05 A3019 RMK A01 T10251046  RH  085%=      5-min Rain = 0
KEN1 201044Z 22002KT M02/M05 A3019 RMK A01 T10241046  RH  085%=      5-min Rain = 0
KEN1 201045Z 22002KT M02/M05 A3019 RMK A01 T10231045  RH  085%=      5-min Rain = 0
KEN1 201046Z 22002KT M02/M04 A3019 RMK A01 T10221044  RH  085%=      5-min Rain = 0
KEN1 201047Z 22001KT M02/M04 A3019 RMK A01 T10221044  RH  085%=      5-min Rain = 0
KEN1 201048Z 22001KT M02/M04 A3019 RMK A01 T10211044  RH  084%=      5-min Rain = 0
KEN1 201049Z 22000KT M02/M05 A3019 RMK A01 T10211045  RH  084%=      5-min Rain = 0
KEN1 201050Z 00000KT M02/M05 A3019 RMK A01 T10211046  RH  084%=      5-min Rain = 0
KEN1 201051Z 22000KT M02/M05 A3019 RMK A01 T10231047  RH  083%=      5-min Rain = 0
KEN1 201052Z 17001KT M02/M05 A3019 RMK A01 T10231047  RH  084%=      5-min Rain = 0
KEN1 201053Z 17002KT M02/M05 A3019 RMK A01 T10241047  RH  084%=      5-min Rain = 0
KEN1 201054Z 19002KT M02/M05 A3019 RMK A01 T10231046  RH  085%=      5-min Rain = 0
KEN1 201055Z 20001KT M02/M04 A3018 RMK A01 T10221044  RH  085%=      5-min Rain = 0
KEN1 201056Z 20001KT M02/M05 A3018 RMK A01 T10221045  RH  084%=      5-min Rain = 0
KEN1 201057Z 20001KT M02/M05 A3019 RMK A01 T10211045  RH  084%=      5-min Rain = 0
KEN1 201058Z 18002KT M02/M04 A3019 RMK A01 T10211044  RH  084%=      5-min Rain = 0
KEN1 201059Z 17002KT M02/M04 A3019 RMK A01 T10201044  RH  083%=      5-min Rain = 0
KEN1 201100Z 17002KT M02/M05 A3018 RMK A01 T10201045  RH  083%=      5-min Rain = 0
KEN1 201101Z 17001KT M02/M05 A3018 RMK A01 T10201046  RH  082%=      5-min Rain = 0
KEN1 201102Z 20001KT M02/M05 A3018 RMK A01 T10221048  RH  082%=      5-min Rain = 0
KEN1 201103Z 22002KT M02/M05 A3018 RMK A01 T10231048  RH  083%=      5-min Rain = 0
KEN1 201104Z 23002KT M02/M05 A3018 RMK A01 T10241049  RH  083%=      5-min Rain = 0
KEN1 201105Z 23002KT M02/M05 A3018 RMK A01 T10241049  RH  084%=      5-min Rain = 0
KEN1 201106Z 23001KT M03/M05 A3018 RMK A01 T10251048  RH  084%=      5-min Rain = 0
KEN1 201107Z 18001KT M03/M05 A3018 RMK A01 T10261048  RH  085%=      5-min Rain = 0
KEN1 201108Z 16002KT M03/M05 A3018 RMK A01 T10251047  RH  085%=      5-min Rain = 0
KEN1 201109Z 15002KT M03/M05 A3018 RMK A01 T10261049  RH  084%=      5-min Rain = 0
KEN1 201110Z 17003KT M03/M05 A3018 RMK A01 T10281051  RH  084%=      5-min Rain = 0
KEN1 201111Z 18003KT M03/M05 A3018 RMK A01 T10291050  RH  085%=      5-min Rain = 0
KEN1 201112Z 18003KT M03/M05 A3018 RMK A01 T10291049  RH  086%=      5-min Rain = 0
KEN1 201113Z 18003KT M03/M05 A3018 RMK A01 T10291049  RH  086%=      5-min Rain = 0
KEN1 201114Z 18002KT M03/M05 A3017 RMK A01 T10291049  RH  086%=      5-min Rain = 0
KEN1 201115Z 17002KT M03/M05 A3017 RMK A01 T10291050  RH  086%=      5-min Rain = 0
KEN1 201116Z 16003KT M03/M05 A3017 RMK A01 T10291048  RH  087%=      5-min Rain = 0
KEN1 201117Z 16003KT M03/M05 A3018 RMK A01 T10261046  RH  086%=      5-min Rain = 0
KEN1 201118Z 15003KT M03/M05 A3018 RMK A01 T10261047  RH  085%=      5-min Rain = 0
KEN1 201119Z 15002KT M03/M05 A3018 RMK A01 T10261048  RH  085%=      5-min Rain = 0
KEN1 201120Z 15002KT M03/M05 A3018 RMK A01 T10271049  RH  085%=      5-min Rain = 0
KEN1 201121Z 15002KT M03/M05 A3018 RMK A01 T10281049  RH  085%=      5-min Rain = 0
KEN1 201122Z 15002KT M03/M05 A3018 RMK A01 T10281049  RH  086%=      5-min Rain = 0
KEN1 201123Z 17002KT M03/M05 A3017 RMK A01 T10271048  RH  086%=      5-min Rain = 0
KEN1 201124Z 17003KT M03/M05 A3017 RMK A01 T10271048  RH  085%=      5-min Rain = 0
KEN1 201125Z 16003KT M03/M05 A3017 RMK A01 T10281050  RH  085%=      5-min Rain = 0
KEN1 201126Z 16002KT M03/M05 A3017 RMK A01 T10301051  RH  085%=      5-min Rain = 0
KEN1 201127Z 16002KT M03/M05 A3017 RMK A01 T10311051  RH  086%=      5-min Rain = 0
KEN1 201128Z 15003KT M03/M05 A3017 RMK A01 T10311051  RH  087%=      5-min Rain = 0
KEN1 201129Z 15003KT M03/M05 A3017 RMK A01 T10321051  RH  087%=      5-min Rain = 0
KEN1 201130Z 15002KT M03/M05 A3017 RMK A01 T10331051  RH  087%=      5-min Rain = 0
KEN1 201131Z 17002KT M03/M05 A3017 RMK A01 T10341052  RH  087%=      5-min Rain = 0
KEN1 201132Z 18002KT M03/M05 A3017 RMK A01 T10341051  RH  088%=      5-min Rain = 0
KEN1 201133Z 17003KT M03/M05 A3017 RMK A01 T10341051  RH  088%=      5-min Rain = 0
KEN1 201134Z 16004KT M04/M05 A3017 RMK A01 T10351051  RH  088%=      5-min Rain = 0
KEN1 201135Z 16005KT M04/M05 A3017 RMK A01 T10351052  RH  088%=      5-min Rain = 0
KEN1 201136Z 16005KT M04/M05 A3017 RMK A01 T10361052  RH  089%=      5-min Rain = 0
KEN1 201137Z 16005KT M04/M05 A3017 RMK A01 T10361051  RH  089%=      5-min Rain = 0
KEN1 201138Z 16005KT M04/M05 A3017 RMK A01 T10361051  RH  089%=      5-min Rain = 0
KEN1 201139Z 17004KT M04/M05 A3017 RMK A01 T10361051  RH  089%=      5-min Rain = 0
KEN1 201140Z 17004KT M04/M05 A3017 RMK A01 T10371052  RH  089%=      5-min Rain = 0
KEN1 201141Z 18004KT M04/M05 A3017 RMK A01 T10381052  RH  090%=      5-min Rain = 0
KEN1 201142Z 20004KT M04/M05 A3017 RMK A01 T10381052  RH  090%=      5-min Rain = 0
KEN1 201143Z 20004KT M04/M05 A3017 RMK A01 T10391053  RH  090%=      5-min Rain = 0
KEN1 201144Z 20003KT M04/M05 A3017 RMK A01 T10391053  RH  090%=      5-min Rain = 0
KEN1 201145Z 19003KT M04/M05 A3017 RMK A01 T10391053  RH  090%=      5-min Rain = 0
KEN1 201146Z 18003KT M04/M05 A3017 RMK A01 T10391052  RH  091%=      5-min Rain = 0
KEN1 201147Z 17003KT M04/M05 A3017 RMK A01 T10391053  RH  091%=      5-min Rain = 0
KEN1 201148Z 15004KT M04/M05 A3017 RMK A01 T10401053  RH  091%=      5-min Rain = 0
KEN1 201149Z 15003KT M04/M05 A3017 RMK A01 T10411054  RH  090%=      5-min Rain = 0
KEN1 201150Z 17003KT M04/M06 A3017 RMK A01 T10421055  RH  090%=      5-min Rain = 0
KEN1 201151Z 19003KT M04/M06 A3017 RMK A01 T10421055  RH  091%=      5-min Rain = 0
KEN1 201152Z 21003KT M04/M05 A3017 RMK A01 T10421054  RH  091%=      5-min Rain = 0
KEN1 201153Z 21003KT M04/M05 A3017 RMK A01 T10421054  RH  091%=      5-min Rain = 0
KEN1 201154Z 22004KT M04/M05 A3017 RMK A01 T10421053  RH  091%=      5-min Rain = 0
KEN1 201155Z 22004KT M04/M05 A3017 RMK A01 T10421054  RH  091%=      5-min Rain = 0
KEN1 201156Z 23004KT M04/M05 A3017 RMK A01 T10421054  RH  091%=      5-min Rain = 0
KEN1 201157Z 24004KT M04/M06 A3017 RMK A01 T10421055  RH  091%=      5-min Rain = 0
KEN1 201158Z 24004KT M04/M06 A3017 RMK A01 T10431055  RH  091%=      5-min Rain = 0
KEN1 201159Z 24004KT M04/M06 A3017 RMK A01 T10431055  RH  092%=      5-min Rain = 0
KEN1 201200Z 24004KT M04/M05 A3017 RMK A01 T10431054  RH  092%=      5-min Rain = 0
KEN1 201201Z 24004KT M04/M05 A3017 RMK A01 T10421053  RH  092%=      5-min Rain = 0
KEN1 201202Z 24004KT M04/M05 A3017 RMK A01 T10411052  RH  092%=      5-min Rain = 0
KEN1 201203Z 23003KT M04/M05 A3017 RMK A01 T10401051  RH  092%=      5-min Rain = 0
KEN1 201204Z 22003KT M04/M05 A3017 RMK A01 T10401052  RH  091%=      5-min Rain = 0
KEN1 201205Z 22003KT M04/M05 A3017 RMK A01 T10401053  RH  091%=      5-min Rain = 0
KEN1 201206Z 23004KT M04/M05 A3017 RMK A01 T10401053  RH  091%=      5-min Rain = 0
KEN1 201207Z 24004KT M04/M05 A3017 RMK A01 T10391052  RH  091%=      5-min Rain = 0
KEN1 201208Z 24005KT M04/M05 A3017 RMK A01 T10381051  RH  091%=      5-min Rain = 0
KEN1 201209Z 24005KT M04/M05 A3017 RMK A01 T10371051  RH  090%=      5-min Rain = 0
KEN1 201210Z 24004KT M04/M05 A3017 RMK A01 T10361050  RH  090%=      5-min Rain = 0
KEN1 201211Z 24004KT M04/M05 A3017 RMK A01 T10351050  RH  089%=      5-min Rain = 0
KEN1 201212Z 24005KT M04/M05 A3017 RMK A01 T10351051  RH  089%=      5-min Rain = 0
KEN1 201213Z 24004KT M04/M05 A3018 RMK A01 T10351052  RH  088%=      5-min Rain = 0
KEN1 201214Z 24004KT M04/M05 A3017 RMK A01 T10351052  RH  088%=      5-min Rain = 0
KEN1 201215Z 23004KT M04/M05 A3017 RMK A01 T10361052  RH  088%=      5-min Rain = 0
KEN1 201216Z 22004KT M04/M05 A3017 RMK A01 T10361053  RH  088%=      5-min Rain = 0
KEN1 201217Z 22004KT M04/M05 A3017 RMK A01 T10371053  RH  088%=      5-min Rain = 0
KEN1 201218Z 21005KT M04/M05 A3017 RMK A01 T10381054  RH  089%=      5-min Rain = 0
KEN1 201219Z 21004KT M04/M05 A3017 RMK A01 T10381054  RH  089%=      5-min Rain = 0
KEN1 201220Z 21004KT M04/M05 A3017 RMK A01 T10391054  RH  089%=      5-min Rain = 0
KEN1 201221Z 21004KT M04/M05 A3017 RMK A01 T10391054  RH  090%=      5-min Rain = 0
KEN1 201222Z 21003KT M04/M05 A3017 RMK A01 T10391053  RH  090%=      5-min Rain = 0
KEN1 201223Z 21003KT M04/M05 A3017 RMK A01 T10391053  RH  090%=      5-min Rain = 0
KEN1 201224Z 22003KT M04/M05 A3017 RMK A01 T10391052  RH  090%=      5-min Rain = 0
KEN1 201225Z 22003KT M04/M05 A3017 RMK A01 T10391053  RH  090%=      5-min Rain = 0
KEN1 201226Z 21003KT M04/M05 A3017 RMK A01 T10391053  RH  090%=      5-min Rain = 0
KEN1 201227Z 21003KT M04/M05 A3017 RMK A01 T10391053  RH  090%=      5-min Rain = 0
KEN1 201228Z 22003KT M04/M05 A3017 RMK A01 T10401054  RH  090%=      5-min Rain = 0
KEN1 201229Z 22003KT M04/M05 A3017 RMK A01 T10401053  RH  090%=      5-min Rain = 0
KEN1 201230Z 22004KT M04/M05 A3018 RMK A01 T10391052  RH  091%=      5-min Rain = 0
KEN1 201231Z 22004KT M04/M05 A3018 RMK A01 T10371050  RH  091%=      5-min Rain = 0
KEN1 201232Z 23005KT M03/M05 A3018 RMK A01 T10341048  RH  090%=      5-min Rain = 0
KEN1 201233Z 22004KT M03/M05 A3018 RMK A01 T10331050  RH  088%=      5-min Rain = 0
KEN1 201234Z 23005KT M03/M05 A3018 RMK A01 T10331050  RH  088%=      5-min Rain = 0
KEN1 201235Z 22005KT M03/M05 A3018 RMK A01 T10321051  RH  087%=      5-min Rain = 0
KEN1 201236Z 22005KT M03/M05 A3018 RMK A01 T10331051  RH  087%=      5-min Rain = 0
KEN1 201237Z 22005KT M03/M05 A3018 RMK A01 T10331051  RH  087%=      5-min Rain = 0
KEN1 201238Z 22005KT M03/M05 A3018 RMK A01 T10321050  RH  087%=      5-min Rain = 0
KEN1 201239Z 21005KT M03/M05 A3018 RMK A01 T10321051  RH  087%=      5-min Rain = 0
KEN1 201240Z 21005KT M03/M05 A3018 RMK A01 T10311051  RH  087%=      5-min Rain = 0
KEN1 201241Z 21005KT M03/M05 A3018 RMK A01 T10321051  RH  087%=      5-min Rain = 0
KEN1 201242Z 22005KT M03/M05 A3018 RMK A01 T10331053  RH  087%=      5-min Rain = 0
KEN1 201243Z 22004KT M03/M05 A3018 RMK A01 T10341053  RH  087%=      5-min Rain = 0
KEN1 201244Z 22004KT M04/M05 A3018 RMK A01 T10351052  RH  088%=      5-min Rain = 0
KEN1 201245Z 22004KT M04/M05 A3018 RMK A01 T10351052  RH  088%=      5-min Rain = 0
KEN1 201246Z 23004KT M03/M05 A3018 RMK A01 T10341051  RH  088%=      5-min Rain = 0
KEN1 201247Z 23004KT M03/M05 A3018 RMK A01 T10341052  RH  088%=      5-min Rain = 0
KEN1 201248Z 23005KT M04/M05 A3018 RMK A01 T10351052  RH  088%=      5-min Rain = 0
KEN1 201249Z 23004KT M03/M05 A3018 RMK A01 T10341051  RH  088%=      5-min Rain = 0
KEN1 201250Z 23004KT M03/M05 A3018 RMK A01 T10331051  RH  088%=      5-min Rain = 0
KEN1 201251Z 23004KT M03/M05 A3018 RMK A01 T10321050  RH  088%=      5-min Rain = 0
KEN1 201252Z 24005KT M03/M05 A3018 RMK A01 T10311050  RH  087%=      5-min Rain = 0
KEN1 201253Z 24005KT M03/M05 A3018 RMK A01 T10311050  RH  087%=      5-min Rain = 0
KEN1 201254Z 25005KT M03/M05 A3018 RMK A01 T10301050  RH  087%=      5-min Rain = 0
KEN1 201255Z 25005KT M03/M05 A3018 RMK A01 T10291049  RH  086%=      5-min Rain = 0
KEN1 201256Z 24005KT M03/M05 A3018 RMK A01 T10291049  RH  086%=      5-min Rain = 0
KEN1 201257Z 24004KT M03/M05 A3018 RMK A01 T10291049  RH  086%=      5-min Rain = 0
KEN1 201258Z 24004KT M03/M05 A3018 RMK A01 T10291050  RH  086%=      5-min Rain = 0
KEN1 201259Z 24004KT M03/M05 A3018 RMK A01 T10301050  RH  086%=      5-min Rain = 0
KEN1 201300Z 25004KT M03/M05 A3018 RMK A01 T10301050  RH  086%=      5-min Rain = 0
KEN1 201301Z 25004KT M03/M05 A3018 RMK A01 T10301049  RH  086%=      5-min Rain = 0
KEN1 201302Z 24004KT M03/M05 A3018 RMK A01 T10301049  RH  086%=      5-min Rain = 0
KEN1 201303Z 24005KT M03/M05 A3018 RMK A01 T10301049  RH  086%=      5-min Rain = 0
KEN1 201304Z 24004KT M03/M05 A3018 RMK A01 T10291049  RH  086%=      5-min Rain = 0
KEN1 201305Z 24004KT M03/M05 A3018 RMK A01 T10301050  RH  086%=      5-min Rain = 0
KEN1 201306Z 24005KT M03/M05 A3018 RMK A01 T10301050  RH  087%=      5-min Rain = 0
KEN1 201307Z 24005KT M03/M05 A3018 RMK A01 T10311050  RH  087%=      5-min Rain = 0
KEN1 201308Z 24005KT M03/M05 A3018 RMK A01 T10311050  RH  087%=      5-min Rain = 0
KEN1 201309Z 23005KT M03/M05 A3018 RMK A01 T10321051  RH  087%=      5-min Rain = 0
KEN1 201310Z 23005KT M03/M05 A3018 RMK A01 T10321050  RH  088%=      5-min Rain = 0
KEN1 201311Z 23005KT M03/M05 A3018 RMK A01 T10321049  RH  088%=      5-min Rain = 0
KEN1 201312Z 23004KT M03/M05 A3018 RMK A01 T10321049  RH  088%=      5-min Rain = 0
KEN1 201313Z 24004KT M03/M05 A3018 RMK A01 T10321049  RH  088%=      5-min Rain = 0
KEN1 201314Z 23004KT M03/M05 A3018 RMK A01 T10321049  RH  088%=      5-min Rain = 0
KEN1 201315Z 23004KT M03/M05 A3018 RMK A01 T10321049  RH  088%=      5-min Rain = 0
KEN1 201316Z 23004KT M03/M05 A3018 RMK A01 T10321048  RH  088%=      5-min Rain = 0
KEN1 201317Z 23004KT M03/M05 A3018 RMK A01 T10321049  RH  088%=      5-min Rain = 0
KEN1 201318Z 24003KT M03/M05 A3018 RMK A01 T10321049  RH  088%=      5-min Rain = 0
KEN1 201319Z 24003KT M03/M05 A3018 RMK A01 T10321049  RH  089%=      5-min Rain = 0
KEN1 201320Z 25003KT M03/M05 A3018 RMK A01 T10321048  RH  088%=      5-min Rain = 0
KEN1 201321Z 25004KT M03/M05 A3018 RMK A01 T10321049  RH  088%=      5-min Rain = 0
KEN1 201322Z 24004KT M03/M05 A3018 RMK A01 T10321049  RH  088%=      5-min Rain = 0
KEN1 201323Z 23004KT M03/M05 A3018 RMK A01 T10321049  RH  088%=      5-min Rain = 0
KEN1 201324Z 24004KT M03/M05 A3018 RMK A01 T10341051  RH  088%=      5-min Rain = 0
KEN1 201325Z 24004KT M03/M05 A3018 RMK A01 T10341051  RH  088%=      5-min Rain = 0
KEN1 201326Z 25004KT M04/M05 A3018 RMK A01 T10351051  RH  089%=      5-min Rain = 0
KEN1 201327Z 25004KT M04/M05 A3018 RMK A01 T10351050  RH  089%=      5-min Rain = 0
KEN1 201328Z 25004KT M04/M05 A3018 RMK A01 T10351050  RH  089%=      5-min Rain = 0
KEN1 201329Z 25004KT M04/M05 A3018 RMK A01 T10351050  RH  089%=      5-min Rain = 0
KEN1 201330Z 25005KT M04/M05 A3019 RMK A01 T10351050  RH  089%=      5-min Rain = 0
KEN1 201331Z 24005KT M04/M05 A3019 RMK A01 T10351050  RH  089%=      5-min Rain = 0
KEN1 201332Z 24005KT M04/M05 A3019 RMK A01 T10351050  RH  090%=      5-min Rain = 0
KEN1 201333Z 24005KT M04/M05 A3019 RMK A01 T10361050  RH  090%=      5-min Rain = 0
KEN1 201334Z 24005KT M04/M05 A3019 RMK A01 T10361050  RH  090%=      5-min Rain = 0
KEN1 201335Z 24005KT M04/M05 A3019 RMK A01 T10361050  RH  090%=      5-min Rain = 0
KEN1 201336Z 24005KT M04/M05 A3019 RMK A01 T10361050  RH  090%=      5-min Rain = 0
KEN1 201337Z 24005KT M04/M05 A3019 RMK A01 T10361050  RH  091%=      5-min Rain = 0
KEN1 201338Z 24005KT M04/M05 A3019 RMK A01 T10371050  RH  091%=      5-min Rain = 0
KEN1 201339Z 24005KT M04/M05 A3019 RMK A01 T10371050  RH  091%=      5-min Rain = 0
KEN1 201340Z 24005KT M04/M05 A3019 RMK A01 T10371049  RH  091%=      5-min Rain = 0
KEN1 201341Z 24005KT M04/M05 A3019 RMK A01 T10371049  RH  091%=      5-min Rain = 0
KEN1 201342Z 24004KT M04/M05 A3019 RMK A01 T10361049  RH  091%=      5-min Rain = 0
KEN1 201343Z 24004KT M04/M05 A3019 RMK A01 T10361049  RH  091%=      5-min Rain = 0
KEN1 201344Z 24004KT M04/M05 A3019 RMK A01 T10371049  RH  091%=      5-min Rain = 0
KEN1 201345Z 25004KT M04/M05 A3019 RMK A01 T10361049  RH  091%=      5-min Rain = 0
KEN1 201346Z 25003KT M04/M05 A3019 RMK A01 T10361049  RH  091%=      5-min Rain = 0
KEN1 201347Z 25004KT M04/M05 A3019 RMK A01 T10361048  RH  091%=      5-min Rain = 0
KEN1 201348Z 25003KT M04/M05 A3019 RMK A01 T10361048  RH  091%=      5-min Rain = 0
KEN1 201349Z 25003KT M04/M05 A3019 RMK A01 T10351048  RH  091%=      5-min Rain = 0
KEN1 201350Z 24004KT M04/M05 A3019 RMK A01 T10351048  RH  091%=      5-min Rain = 0
KEN1 201351Z 25004KT M04/M05 A3019 RMK A01 T10351048  RH  091%=      5-min Rain = 0
KEN1 201352Z 25004KT M04/M05 A3019 RMK A01 T10351047  RH  091%=      5-min Rain = 0
KEN1 201353Z 26004KT M03/M05 A3018 RMK A01 T10341047  RH  091%=      5-min Rain = 0
KEN1 201354Z 25004KT M03/M05 A3018 RMK A01 T10341047  RH  091%=      5-min Rain = 0
KEN1 201355Z 24004KT M03/M05 A3018 RMK A01 T10341047  RH  091%=      5-min Rain = 0
KEN1 201356Z 25005KT M03/M05 A3018 RMK A01 T10331046  RH  091%=      5-min Rain = 0
KEN1 201357Z 23004KT M03/M05 A3018 RMK A01 T10331047  RH  090%=      5-min Rain = 0
KEN1 201358Z 24004KT M03/M05 A3018 RMK A01 T10331047  RH  090%=      5-min Rain = 0
KEN1 201359Z 24005KT M03/M05 A3018 RMK A01 T10331047  RH  090%=      5-min Rain = 0
KEN1 201400Z 24005KT M03/M05 A3018 RMK A01 T10321046  RH  090%=      5-min Rain = 0
KEN1 201401Z 24005KT M03/M05 A3018 RMK A01 T10321046  RH  090%=      5-min Rain = 0
KEN1 201402Z 23005KT M03/M05 A3018 RMK A01 T10321046  RH  090%=      5-min Rain = 0
KEN1 201403Z 21004KT M03/M05 A3018 RMK A01 T10311046  RH  090%=      5-min Rain = 0
KEN1 201404Z 21004KT M03/M05 A3018 RMK A01 T10321047  RH  089%=      5-min Rain = 0
KEN1 201405Z 21004KT M03/M05 A3018 RMK A01 T10321047  RH  089%=      5-min Rain = 0
KEN1 201406Z 21004KT M03/M05 A3018 RMK A01 T10321047  RH  089%=      5-min Rain = 0
KEN1 201407Z 22004KT M03/M05 A3018 RMK A01 T10321047  RH  090%=      5-min Rain = 0
KEN1 201408Z 22004KT M03/M05 A3018 RMK A01 T10321047  RH  090%=      5-min Rain = 0
KEN1 201409Z 24004KT M03/M05 A3018 RMK A01 T10301045  RH  090%=      5-min Rain = 0
KEN1 201410Z 25005KT M03/M04 A3018 RMK A01 T10291044  RH  089%=      5-min Rain = 0
KEN1 201411Z 24005KT M03/M05 A3018 RMK A01 T10281045  RH  088%=      5-min Rain = 0
KEN1 201412Z 24005KT M03/M05 A3018 RMK A01 T10281045  RH  088%=      5-min Rain = 0
KEN1 201413Z 24005KT M03/M05 A3018 RMK A01 T10271045  RH  087%=      5-min Rain = 0
KEN1 201414Z 24006KT M03/M05 A3019 RMK A01 T10271045  RH  087%=      5-min Rain = 0
KEN1 201415Z 25005KT M03/M05 A3019 RMK A01 T10261045  RH  087%=      5-min Rain = 0
KEN1 201416Z 25005KT M03/M04 A3019 RMK A01 T10251044  RH  087%=      5-min Rain = 0
KEN1 201417Z 25005KT M03/M04 A3019 RMK A01 T10251044  RH  087%=      5-min Rain = 0
KEN1 201418Z 25005KT M03/M04 A3019 RMK A01 T10251044  RH  087%=      5-min Rain = 0
KEN1 201419Z 25005KT M03/M04 A3019 RMK A01 T10251044  RH  087%=      5-min Rain = 0
KEN1 201420Z 25006KT M03/M04 A3019 RMK A01 T10251044  RH  087%=      5-min Rain = 0
KEN1 201421Z 24005KT M03/M04 A3019 RMK A01 T10251044  RH  086%=      5-min Rain = 0
KEN1 201422Z 23005KT M03/M05 A3019 RMK A01 T10251045  RH  086%=      5-min Rain = 0
KEN1 201423Z 23005KT M03/M05 A3019 RMK A01 T10251045  RH  086%=      5-min Rain = 0
KEN1 201424Z 23005KT M03/M05 A3019 RMK A01 T10251045  RH  086%=      5-min Rain = 0
KEN1 201425Z 22006KT M03/M04 A3019 RMK A01 T10251044  RH  087%=      5-min Rain = 0
KEN1 201426Z 23006KT M03/M04 A3019 RMK A01 T10251044  RH  087%=      5-min Rain = 0
KEN1 201427Z 23006KT M03/M05 A3019 RMK A01 T10251045  RH  087%=      5-min Rain = 0
KEN1 201428Z 23007KT M03/M05 A3019 RMK A01 T10251045  RH  086%=      5-min Rain = 0
KEN1 201429Z 23007KT M03/M05 A3019 RMK A01 T10251045  RH  086%=      5-min Rain = 0
KEN1 201430Z 23007KT M03/M05 A3019 RMK A01 T10251045  RH  086%=      5-min Rain = 0
KEN1 201431Z 23006KT M03/M05 A3019 RMK A01 T10261045  RH  087%=      5-min Rain = 0
KEN1 201432Z 23006KT M03/M05 A3019 RMK A01 T10261045  RH  087%=      5-min Rain = 0
KEN1 201433Z 22005KT M03/M05 A3019 RMK A01 T10261045  RH  087%=      5-min Rain = 0
KEN1 201434Z 23006KT M03/M04 A3019 RMK A01 T10261044  RH  087%=      5-min Rain = 0
KEN1 201435Z 23006KT M03/M04 A3019 RMK A01 T10251044  RH  087%=      5-min Rain = 0
KEN1 201436Z 23005KT M03/M05 A3019 RMK A01 T10251045  RH  087%=      5-min Rain = 0
KEN1 201437Z 23005KT M03/M05 A3019 RMK A01 T10251045  RH  086%=      5-min Rain = 0
KEN1 201438Z 22005KT M03/M05 A3019 RMK A01 T10251045  RH  086%=      5-min Rain = 0
KEN1 201439Z 21005KT M03/M05 A3019 RMK A01 T10261046  RH  086%=      5-min Rain = 0
KEN1 201440Z 20004KT M03/M05 A3019 RMK A01 T10261046  RH  086%=      5-min Rain = 0
KEN1 201441Z 20004KT M03/M05 A3019 RMK A01 T10271047  RH  086%=      5-min Rain = 0
KEN1 201442Z 21004KT M03/M05 A3019 RMK A01 T10281047  RH  087%=      5-min Rain = 0
KEN1 201443Z 21004KT M03/M05 A3019 RMK A01 T10291047  RH  087%=      5-min Rain = 0
KEN1 201444Z 19005KT M03/M05 A3019 RMK A01 T10291047  RH  087%=      5-min Rain = 0
KEN1 201445Z 19005KT M03/M05 A3019 RMK A01 T10291046  RH  088%=      5-min Rain = 0
KEN1 201446Z 18005KT M03/M05 A3019 RMK A01 T10291046  RH  088%=      5-min Rain = 0
KEN1 201447Z 18005KT M03/M05 A3019 RMK A01 T10291046  RH  088%=      5-min Rain = 0
KEN1 201448Z 18005KT M03/M05 A3019 RMK A01 T10291046  RH  088%=      5-min Rain = 0
KEN1 201449Z 18005KT M03/M05 A3019 RMK A01 T10291046  RH  088%=      5-min Rain = 0
KEN1 201450Z 18005KT M03/M05 A3019 RMK A01 T10291046  RH  088%=      5-min Rain = 0
KEN1 201451Z 18005KT M03/M05 A3019 RMK A01 T10291046  RH  088%=      5-min Rain = 0
KEN1 201452Z 18005KT M03/M05 A3019 RMK A01 T10291046  RH  088%=      5-min Rain = 0
KEN1 201453Z 19005KT M03/M05 A3019 RMK A01 T10291046  RH  088%=      5-min Rain = 0
KEN1 201454Z 19005KT M03/M05 A3018 RMK A01 T10291046  RH  088%=      5-min Rain = 0
KEN1 201455Z 19004KT M03/M05 A3018 RMK A01 T10281045  RH  088%=      5-min Rain = 0
KEN1 201456Z 19004KT M03/M04 A3018 RMK A01 T10281044  RH  089%=      5-min Rain = 0
KEN1 201457Z 19005KT M03/M04 A3018 RMK A01 T10271043  RH  089%=      5-min Rain = 0
KEN1 201458Z 18005KT M03/M04 A3018 RMK A01 T10261042  RH  089%=      5-min Rain = 0
KEN1 201459Z 18005KT M03/M04 A3018 RMK A01 T10251042  RH  089%=      5-min Rain = 0
KEN1 201500Z 19005KT M03/M04 A3018 RMK A01 T10251041  RH  088%=      5-min Rain = 0
KEN1 201501Z 19005KT M02/M04 A3018 RMK A01 T10241041  RH  088%=      5-min Rain = 0
KEN1 201502Z 19005KT M02/M04 A3018 RMK A01 T10231040  RH  088%=      5-min Rain = 0
KEN1 201503Z 19005KT M02/M04 A3018 RMK A01 T10231040  RH  088%=      5-min Rain = 0
KEN1 201504Z 19005KT M02/M04 A3018 RMK A01 T10231040  RH  088%=      5-min Rain = 0
KEN1 201505Z 19004KT M02/M04 A3019 RMK A01 T10221040  RH  088%=      5-min Rain = 0
KEN1 201506Z 19004KT M02/M04 A3018 RMK A01 T10221039  RH  088%=      5-min Rain = 0
KEN1 201507Z 20004KT M02/M04 A3018 RMK A01 T10211038  RH  088%=      5-min Rain = 0
KEN1 201508Z 21004KT M02/M04 A3018 RMK A01 T10201037  RH  088%=      5-min Rain = 0
KEN1 201509Z 21005KT M02/M04 A3018 RMK A01 T10191036  RH  089%=      5-min Rain = 0
KEN1 201510Z 21004KT M02/M04 A3018 RMK A01 T10191036  RH  088%=      5-min Rain = 0
KEN1 201511Z 21005KT M02/M04 A3018 RMK A01 T10171036  RH  087%=      5-min Rain = 0
KEN1 201512Z 21005KT M02/M04 A3018 RMK A01 T10161036  RH  086%=      5-min Rain = 0
KEN1 201513Z 21005KT M02/M04 A3018 RMK A01 T10151035  RH  087%=      5-min Rain = 0
KEN1 201514Z 21005KT M01/M03 A3018 RMK A01 T10141033  RH  087%=      5-min Rain = 0
KEN1 201515Z 21004KT M01/M03 A3018 RMK A01 T10131033  RH  086%=      5-min Rain = 0
KEN1 201516Z 21004KT M01/M03 A3018 RMK A01 T10121034  RH  085%=      5-min Rain = 0
KEN1 201517Z 20004KT M01/M04 A3018 RMK A01 T10111035  RH  084%=      5-min Rain = 0
KEN1 201518Z 20004KT M01/M04 A3018 RMK A01 T10101035  RH  084%=      5-min Rain = 0
KEN1 201519Z 19004KT M01/M03 A3018 RMK A01 T10091033  RH  084%=      5-min Rain = 0
KEN1 201520Z 19004KT M01/M03 A3018 RMK A01 T10091032  RH  084%=      5-min Rain = 0
KEN1 201521Z 18003KT M01/M03 A3018 RMK A01 T10091032  RH  084%=      5-min Rain = 0
KEN1 201522Z 18003KT M01/M03 A3018 RMK A01 T10091031  RH  085%=      5-min Rain = 0
KEN1 201523Z 18004KT M01/M03 A3018 RMK A01 T10091031  RH  085%=      5-min Rain = 0
KEN1 201524Z 17004KT M01/M03 A3018 RMK A01 T10101032  RH  085%=      5-min Rain = 0
KEN1 201525Z 17004KT M01/M03 A3018 RMK A01 T10101033  RH  084%=      5-min Rain = 0
KEN1 201526Z 17003KT M01/M03 A3018 RMK A01 T10101034  RH  084%=      5-min Rain = 0
KEN1 201527Z 18002KT M01/M03 A3018 RMK A01 T10101034  RH  084%=      5-min Rain = 0
KEN1 201528Z 17002KT M01/M03 A3018 RMK A01 T10101033  RH  084%=      5-min Rain = 0
KEN1 201529Z 17002KT M01/M03 A3018 RMK A01 T10091034  RH  084%=      5-min Rain = 0
KEN1 201530Z 17001KT M01/M03 A3018 RMK A01 T10091034  RH  083%=      5-min Rain = 0
KEN1 201531Z 17001KT M01/M03 A3018 RMK A01 T10081034  RH  083%=      5-min Rain = 0
KEN1 201532Z 17001KT M01/M03 A3018 RMK A01 T10081033  RH  083%=      5-min Rain = 0
KEN1 201533Z 16001KT M01/M03 A3018 RMK A01 T10071032  RH  083%=      5-min Rain = 0
KEN1 201534Z 17001KT M01/M03 A3018 RMK A01 T10061034  RH  082%=      5-min Rain = 0
KEN1 201535Z 18002KT M01/M04 A3018 RMK A01 T10061035  RH  081%=      5-min Rain = 0
KEN1 201536Z 17002KT M01/M04 A3018 RMK A01 T10051035  RH  080%=      5-min Rain = 0
KEN1 201537Z 17002KT M00/M04 A3018 RMK A01 T10041035  RH  080%=      5-min Rain = 0
KEN1 201538Z 18003KT M00/M03 A3018 RMK A01 T10041034  RH  080%=      5-min Rain = 0
KEN1 201539Z 17002KT M00/M03 A3018 RMK A01 T10031033  RH  080%=      5-min Rain = 0
KEN1 201540Z 17002KT M00/M03 A3018 RMK A01 T10021033  RH  080%=      5-min Rain = 0
KEN1 201541Z 18002KT M00/M03 A3018 RMK A01 T10011034  RH  078%=      5-min Rain = 0
KEN1 201542Z 18002KT 00/M03 A3018 RMK A01 T00011034  RH  077%=      5-min Rain = 0
KEN1 201543Z 19002KT 00/M03 A3018 RMK A01 T00021033  RH  077%=      5-min Rain = 0
KEN1 201544Z 19003KT 00/M03 A3018 RMK A01 T00031034  RH  076%=      5-min Rain = 0
KEN1 201545Z 20002KT 00/M03 A3018 RMK A01 T00031034  RH  076%=      5-min Rain = 0
KEN1 201546Z 22002KT 00/M03 A3018 RMK A01 T00041033  RH  076%=      5-min Rain = 0
KEN1 201547Z 22002KT 00/M03 A3018 RMK A01 T00041033  RH  076%=      5-min Rain = 0
KEN1 201548Z 22002KT 01/M03 A3018 RMK A01 T00051032  RH  076%=      5-min Rain = 0
KEN1 201549Z 22002KT 01/M03 A3018 RMK A01 T00051032  RH  076%=      5-min Rain = 0
KEN1 201550Z 21003KT 01/M03 A3018 RMK A01 T00071031  RH  076%=      5-min Rain = 0
KEN1 201551Z 21003KT 01/M03 A3018 RMK A01 T00081032  RH  075%=      5-min Rain = 0
KEN1 201552Z 21003KT 01/M04 A3018 RMK A01 T00081035  RH  073%=      5-min Rain = 0
KEN1 201553Z 20003KT 01/M04 A3018 RMK A01 T00081036  RH  072%=      5-min Rain = 0
KEN1 201554Z 20003KT 01/M03 A3018 RMK A01 T00091033  RH  074%=      5-min Rain = 0
KEN1 201555Z 21003KT 01/M03 A3018 RMK A01 T00101033  RH  073%=      5-min Rain = 0
KEN1 201556Z 21003KT 01/M04 A3018 RMK A01 T00101036  RH  072%=      5-min Rain = 0
KEN1 201557Z 21003KT 01/M04 A3017 RMK A01 T00101037  RH  071%=      5-min Rain = 0
KEN1 201558Z 22002KT 01/M04 A3017 RMK A01 T00101035  RH  072%=      5-min Rain = 0
KEN1 201559Z 23002KT 01/M03 A3017 RMK A01 T00101033  RH  073%=      5-min Rain = 0
KEN1 201600Z 23002KT 01/M03 A3017 RMK A01 T00111031  RH  073%=      5-min Rain = 0
KEN1 201601Z 21002KT 01/M03 A3017 RMK A01 T00121032  RH  072%=      5-min Rain = 0
KEN1 201602Z 20002KT 01/M03 A3017 RMK A01 T00131034  RH  071%=      5-min Rain = 0
KEN1 201603Z 22002KT 01/M03 A3017 RMK A01 T00131031  RH  072%=      5-min Rain = 0
KEN1 201604Z 22002KT 01/M03 A3017 RMK A01 T00141030  RH  072%=      5-min Rain = 0
KEN1 201605Z 20002KT 01/M03 A3017 RMK A01 T00141033  RH  071%=      5-min Rain = 0
KEN1 201606Z 22003KT 02/M03 A3017 RMK A01 T00151030  RH  072%=      5-min Rain = 0
KEN1 201607Z 21002KT 02/M03 A3017 RMK A01 T00161029  RH  072%=      5-min Rain = 0
KEN1 201608Z 22003KT 02/M03 A3017 RMK A01 T00161029  RH  072%=      5-min Rain = 0
KEN1 201609Z 22002KT 02/M03 A3017 RMK A01 T00161031  RH  071%=      5-min Rain = 0
KEN1 201610Z 22002KT 02/M03 A3017 RMK A01 T00161030  RH  071%=      5-min Rain = 0
KEN1 201611Z 22002KT 02/M03 A3017 RMK A01 T00161030  RH  071%=      5-min Rain = 0
KEN1 201612Z 23003KT 02/M03 A3017 RMK A01 T00171028  RH  072%=      5-min Rain = 0
KEN1 201613Z 23003KT 02/M03 A3017 RMK A01 T00171030  RH  071%=      5-min Rain = 0
KEN1 201614Z 23002KT 02/M03 A3017 RMK A01 T00181030  RH  070%=      5-min Rain = 0
KEN1 201615Z 25002KT 02/M03 A3017 RMK A01 T00181029  RH  071%=      5-min Rain = 0
KEN1 201616Z 23001KT 02/M03 A3017 RMK A01 T00191027  RH  071%=      5-min Rain = 0
KEN1 201617Z 24002KT 02/M03 A3017 RMK A01 T00201027  RH  071%=      5-min Rain = 0
KEN1 201618Z 26003KT 02/M03 A3017 RMK A01 T00211026  RH  071%=      5-min Rain = 0
KEN1 201619Z 26003KT 02/M03 A3017 RMK A01 T00221027  RH  070%=      5-min Rain = 0
KEN1 201620Z 25002KT 02/M03 A3017 RMK A01 T00221027  RH  070%=      5-min Rain = 0
KEN1 201621Z 26002KT 02/M03 A3017 RMK A01 T00231026  RH  070%=      5-min Rain = 0
KEN1 201622Z 26003KT 02/M03 A3017 RMK A01 T00241026  RH  070%=      5-min Rain = 0
KEN1 201623Z 25004KT 03/M03 A3017 RMK A01 T00251026  RH  069%=      5-min Rain = 0
KEN1 201624Z 26005KT 03/M03 A3017 RMK A01 T00261027  RH  068%=      5-min Rain = 0
KEN1 201625Z 27005KT 03/M03 A3017 RMK A01 T00271027  RH  068%=      5-min Rain = 0
KEN1 201626Z 26004KT 03/M03 A3017 RMK A01 T00261028  RH  067%=      5-min Rain = 0
KEN1 201627Z 25005KT 03/M03 A3017 RMK A01 T00251028  RH  068%=      5-min Rain = 0
KEN1 201628Z 26005KT 03/M03 A3017 RMK A01 T00261028  RH  068%=      5-min Rain = 0
KEN1 201629Z 26004KT 03/M03 A3017 RMK A01 T00261026  RH  068%=      5-min Rain = 0
KEN1 201630Z 25004KT 03/M02 A3017 RMK A01 T00281022  RH  070%=      5-min Rain = 0
KEN1 201631Z 27004KT 03/M02 A3017 RMK A01 T00291022  RH  069%=      5-min Rain = 0
KEN1 201632Z 26004KT 03/M02 A3017 RMK A01 T00311019  RH  070%=      5-min Rain = 0
KEN1 201633Z 27004KT 03/M02 A3017 RMK A01 T00321020  RH  069%=      5-min Rain = 0
KEN1 201634Z 26005KT 03/M02 A3017 RMK A01 T00321021  RH  068%=      5-min Rain = 0
KEN1 201635Z 26005KT 03/M02 A3017 RMK A01 T00331021  RH  068%=      5-min Rain = 0
KEN1 201636Z 26006KT 04/M02 A3017 RMK A01 T00351023  RH  066%=      5-min Rain = 0
KEN1 201637Z 26006KT 04/M02 A3017 RMK A01 T00361024  RH  065%=      5-min Rain = 0
KEN1 201638Z 26006KT 04/M03 A3017 RMK A01 T00361025  RH  064%=      5-min Rain = 0
KEN1 201639Z 25006KT 04/M02 A3017 RMK A01 T00371024  RH  065%=      5-min Rain = 0
KEN1 201640Z 25006KT 04/M02 A3017 RMK A01 T00381023  RH  064%=      5-min Rain = 0
KEN1 201641Z 25006KT 04/M02 A3017 RMK A01 T00391024  RH  063%=      5-min Rain = 0
KEN1 201642Z 25006KT 04/M02 A3017 RMK A01 T00391023  RH  064%=      5-min Rain = 0
KEN1 201643Z 25005KT 04/M02 A3017 RMK A01 T00411023  RH  063%=      5-min Rain = 0
KEN1 201644Z 24006KT 04/M02 A3016 RMK A01 T00431021  RH  063%=      5-min Rain = 0
KEN1 201645Z 24005KT 04/M02 A3016 RMK A01 T00441023  RH  062%=      5-min Rain = 0
KEN1 201646Z 24006KT 04/M03 A3016 RMK A01 T00441025  RH  061%=      5-min Rain = 0
KEN1 201647Z 25006KT 04/M02 A3016 RMK A01 T00441024  RH  061%=      5-min Rain = 0
KEN1 201648Z 25005KT 05/M03 A3016 RMK A01 T00451025  RH  061%=      5-min Rain = 0
KEN1 201649Z 24005KT 05/M02 A3016 RMK A01 T00461021  RH  062%=      5-min Rain = 0
KEN1 201650Z 23005KT 05/M02 A3016 RMK A01 T00481020  RH  061%=      5-min Rain = 0
KEN1 201651Z 24005KT 05/M02 A3016 RMK A01 T00511018  RH  061%=      5-min Rain = 0
KEN1 201652Z 26004KT 05/M02 A3016 RMK A01 T00521021  RH  059%=      5-min Rain = 0
KEN1 201653Z 26005KT 05/M02 A3016 RMK A01 T00521019  RH  060%=      5-min Rain = 0
KEN1 201654Z 25006KT 05/M02 A3016 RMK A01 T00521018  RH  060%=      5-min Rain = 0
KEN1 201655Z 25007KT 05/M02 A3016 RMK A01 T00541019  RH  060%=      5-min Rain = 0
KEN1 201656Z 25007KT 05/M02 A3016 RMK A01 T00541020  RH  059%=      5-min Rain = 0
KEN1 201657Z 25007KT 06/M02 A3016 RMK A01 T00561019  RH  059%=      5-min Rain = 0
KEN1 201658Z 26007KT 06/M02 A3016 RMK A01 T00581018  RH  058%=      5-min Rain = 0
KEN1 201659Z 26006KT 06/M02 A3016 RMK A01 T00581019  RH  058%=      5-min Rain = 0
KEN1 201700Z 26006KT 06/M02 A3016 RMK A01 T00601018  RH  057%=      5-min Rain = 0
KEN1 201701Z 26006KT 06/M02 A3016 RMK A01 T00611019  RH  057%=      5-min Rain = 0
KEN1 201702Z 25006KT 06/M02 A3016 RMK A01 T00621017  RH  057%=      5-min Rain = 0
KEN1 201703Z 26006KT 07/M02 A3017 RMK A01 T00661015  RH  056%=      5-min Rain = 0
KEN1 201704Z 26007KT 07/M02 A3017 RMK A01 T00681017  RH  054%=      5-min Rain = 0
KEN1 201705Z 25008KT 07/M02 A3017 RMK A01 T00691020  RH  053%=      5-min Rain = 0
KEN1 201706Z 26008KT 07/M02 A3017 RMK A01 T00711020  RH  052%=      5-min Rain = 0
KEN1 201707Z 26007KT 07/M03 A3017 RMK A01 T00711025  RH  050%=      5-min Rain = 0
KEN1 201708Z 28007KT 07/M02 A3017 RMK A01 T00721024  RH  050%=      5-min Rain = 0
KEN1 201709Z 28007KT 07/M02 A3017 RMK A01 T00731024  RH  050%=      5-min Rain = 0
KEN1 201710Z 28007KT 07/M03 A3017 RMK A01 T00731025  RH  050%=      5-min Rain = 0
KEN1 201711Z 26006KT 07/M02 A3017 RMK A01 T00731024  RH  050%=      5-min Rain = 0
KEN1 201712Z 27006KT 07/M03 A3017 RMK A01 T00741025  RH  049%=      5-min Rain = 0
KEN1 201713Z 26007KT 07/M03 A3017 RMK A01 T00731025  RH  050%=      5-min Rain = 0
KEN1 201714Z 25007KT 07/M02 A3017 RMK A01 T00741024  RH  050%=      5-min Rain = 0
KEN1 201715Z 26009KT 08/M02 A3017 RMK A01 T00751024  RH  049%=      5-min Rain = 0
KEN1 201716Z 26009KT 08/M03 A3017 RMK A01 T00761027  RH  048%=      5-min Rain = 0
KEN1 201717Z 27009KT 08/M03 A3016 RMK A01 T00771028  RH  047%=      5-min Rain = 0
KEN1 201718Z 28008KT 08/M03 A3016 RMK A01 T00781028  RH  047%=      5-min Rain = 0
KEN1 201719Z 26008KT 08/M03 A3016 RMK A01 T00781029  RH  047%=      5-min Rain = 0
KEN1 201720Z 25007KT 08/M03 A3016 RMK A01 T00791027  RH  047%=      5-min Rain = 0
KEN1 201721Z 25007KT 08/M03 A3016 RMK A01 T00791028  RH  047%=      5-min Rain = 0
KEN1 201722Z 25009KT 08/M03 A3016 RMK A01 T00791030  RH  046%=      5-min Rain = 0
KEN1 201723Z 26009KT 08/M03 A3016 RMK A01 T00791031  RH  046%=      5-min Rain = 0
KEN1 201724Z 26007KT 08/M03 A3016 RMK A01 T00791032  RH  046%=      5-min Rain = 0
KEN1 201725Z 27008KT 08/M03 A3016 RMK A01 T00781031  RH  046%=      5-min Rain = 0
KEN1 201726Z 26008KT 08/M03 A3016 RMK A01 T00791030  RH  046%=      5-min Rain = 0
KEN1 201727Z 26008KT 08/M03 A3016 RMK A01 T00791032  RH  045%=      5-min Rain = 0
KEN1 201728Z 26006KT 08/M03 A3016 RMK A01 T00791032  RH  046%=      5-min Rain = 0
KEN1 201729Z 27006KT 08/M03 A3016 RMK A01 T00781031  RH  046%=      5-min Rain = 0
KEN1 201730Z 26008KT 08/M03 A3016 RMK A01 T00791029  RH  046%=      5-min Rain = 0
KEN1 201731Z 26007KT 08/M03 A3016 RMK A01 T00801031  RH  046%=      5-min Rain = 0
KEN1 201732Z 26007KT 08/M03 A3015 RMK A01 T00801032  RH  045%=      5-min Rain = 0
KEN1 201733Z 27007KT 08/M03 A3015 RMK A01 T00801034  RH  044%=      5-min Rain = 0
KEN1 201734Z 26006KT 08/M03 A3015 RMK A01 T00791034  RH  045%=      5-min Rain = 0
KEN1 201735Z 26006KT 08/M03 A3015 RMK A01 T00791032  RH  045%=      5-min Rain = 0
KEN1 201736Z 27006KT 08/M03 A3015 RMK A01 T00791031  RH  046%=      5-min Rain = 0
KEN1 201737Z 27006KT 08/M03 A3015 RMK A01 T00801032  RH  045%=      5-min Rain = 0
KEN1 201738Z 27006KT 08/M03 A3015 RMK A01 T00811032  RH  045%=      5-min Rain = 0
KEN1 201739Z 28006KT 08/M03 A3016 RMK A01 T00821031  RH  045%=      5-min Rain = 0
KEN1 201740Z 26005KT 08/M03 A3016 RMK A01 T00841025  RH  046%=      5-min Rain = 0
KEN1 201741Z 26006KT 08/M03 A3016 RMK A01 T00841028  RH  045%=      5-min Rain = 0
KEN1 201742Z 28005KT 09/M02 A3016 RMK A01 T00851024  RH  046%=      5-min Rain = 0
KEN1 201743Z 27007KT 09/M02 A3015 RMK A01 T00871024  RH  046%=      5-min Rain = 0
KEN1 201744Z 27007KT 09/M03 A3015 RMK A01 T00871029  RH  044%=      5-min Rain = 0
KEN1 201745Z 26008KT 09/M03 A3015 RMK A01 T00861027  RH  045%=      5-min Rain = 0
KEN1 201746Z 26007KT 09/M03 A3015 RMK A01 T00851028  RH  045%=      5-min Rain = 0
KEN1 201747Z 27008KT 09/M03 A3015 RMK A01 T00851028  RH  045%=      5-min Rain = 0
KEN1 201748Z 28007KT 09/M03 A3015 RMK A01 T00851027  RH  045%=      5-min Rain = 0
KEN1 201749Z 26007KT 09/M03 A3015 RMK A01 T00851026  RH  045%=      5-min Rain = 0
KEN1 201750Z 26007KT 09/M03 A3015 RMK A01 T00851026  RH  046%=      5-min Rain = 0
KEN1 201751Z 26008KT 09/M03 A3015 RMK A01 T00861026  RH  045%=      5-min Rain = 0
KEN1 201752Z 26007KT 09/M03 A3015 RMK A01 T00861026  RH  045%=      5-min Rain = 0
KEN1 201753Z 26005KT 09/M02 A3015 RMK A01 T00871023  RH  046%=      5-min Rain = 0
KEN1 201754Z 27005KT 09/M03 A3015 RMK A01 T00881025  RH  045%=      5-min Rain = 0
KEN1 201755Z 28007KT 09/M03 A3015 RMK A01 T00881026  RH  045%=      5-min Rain = 0
KEN1 201756Z 27006KT 09/M03 A3015 RMK A01 T00871026  RH  045%=      5-min Rain = 0
KEN1 201757Z 28006KT 09/M03 A3015 RMK A01 T00871026  RH  045%=      5-min Rain = 0
KEN1 201758Z 28008KT 09/M03 A3015 RMK A01 T00861027  RH  045%=      5-min Rain = 0
KEN1 201759Z 27007KT 09/M03 A3015 RMK A01 T00861027  RH  045%=      5-min Rain = 0
KEN1 201800Z 27007KT 09/M03 A3015 RMK A01 T00861027  RH  045%=      5-min Rain = 0
KEN1 201801Z 27006KT 09/M03 A3015 RMK A01 T00861026  RH  045%=      5-min Rain = 0
KEN1 201802Z 27007KT 09/M03 A3015 RMK A01 T00871025  RH  045%=      5-min Rain = 0
KEN1 201803Z 27006KT 09/M03 A3015 RMK A01 T00881025  RH  045%=      5-min Rain = 0
KEN1 201804Z 27007KT 09/M03 A3015 RMK A01 T00891026  RH  044%=      5-min Rain = 0
KEN1 201805Z 27007KT 09/M03 A3014 RMK A01 T00891029  RH  043%=      5-min Rain = 0
KEN1 201806Z 27006KT 09/M03 A3014 RMK A01 T00891029  RH  043%=      5-min Rain = 0
KEN1 201807Z 28006KT 09/M03 A3014 RMK A01 T00901028  RH  043%=      5-min Rain = 0
KEN1 201808Z 29006KT 09/M03 A3014 RMK A01 T00901031  RH  043%=      5-min Rain = 0
KEN1 201809Z 29006KT 09/M03 A3014 RMK A01 T00901030  RH  043%=      5-min Rain = 0
KEN1 201810Z 27005KT 09/M03 A3014 RMK A01 T00901030  RH  043%=      5-min Rain = 0
KEN1 201811Z 29006KT 09/M03 A3014 RMK A01 T00901031  RH  043%=      5-min Rain = 0
KEN1 201812Z 29006KT 09/M03 A3014 RMK A01 T00901033  RH  042%=      5-min Rain = 0
KEN1 201813Z 29007KT 09/M04 A3014 RMK A01 T00911036  RH  041%=      5-min Rain = 0
KEN1 201814Z 28006KT 09/M04 A3014 RMK A01 T00911037  RH  041%=      5-min Rain = 0
KEN1 201815Z 28006KT 09/M04 A3014 RMK A01 T00901037  RH  040%=      5-min Rain = 0
KEN1 201816Z 28005KT 09/M03 A3014 RMK A01 T00911034  RH  041%=      5-min Rain = 0
KEN1 201817Z 27005KT 09/M03 A3014 RMK A01 T00921032  RH  042%=      5-min Rain = 0
KEN1 201818Z 28004KT 09/M03 A3014 RMK A01 T00911032  RH  042%=      5-min Rain = 0
KEN1 201819Z 27003KT 09/M03 A3013 RMK A01 T00911032  RH  042%=      5-min Rain = 0
KEN1 201820Z 27004KT 09/M03 A3013 RMK A01 T00921030  RH  042%=      5-min Rain = 0
KEN1 201821Z 26005KT 09/M03 A3013 RMK A01 T00941029  RH  042%=      5-min Rain = 0
KEN1 201822Z 27005KT 10/M03 A3013 RMK A01 T00961033  RH  040%=      5-min Rain = 0
KEN1 201823Z 26004KT 10/M03 A3013 RMK A01 T00951034  RH  040%=      5-min Rain = 0
KEN1 201824Z 25002KT 09/M04 A3013 RMK A01 T00941035  RH  040%=      5-min Rain = 0
KEN1 201825Z 25002KT 09/M03 A3013 RMK A01 T00931034  RH  041%=      5-min Rain = 0
KEN1 201826Z 25003KT 09/M03 A3013 RMK A01 T00941030  RH  042%=      5-min Rain = 0
KEN1 201827Z 23004KT 10/M03 A3013 RMK A01 T00961026  RH  042%=      5-min Rain = 0
KEN1 201828Z 23004KT 10/M03 A3013 RMK A01 T00971029  RH  041%=      5-min Rain = 0
KEN1 201829Z 24004KT 10/M03 A3013 RMK A01 T00961032  RH  041%=      5-min Rain = 0
KEN1 201830Z 24004KT 09/M03 A3013 RMK A01 T00941032  RH  041%=      5-min Rain = 0
KEN1 201831Z 23005KT 09/M03 A3013 RMK A01 T00941031  RH  041%=      5-min Rain = 0
KEN1 201832Z 22004KT 09/M03 A3013 RMK A01 T00941031  RH  041%=      5-min Rain = 0
KEN1 201833Z 22004KT 09/M03 A3013 RMK A01 T00941032  RH  041%=      5-min Rain = 0
KEN1 201834Z 24006KT 10/M03 A3012 RMK A01 T00951030  RH  041%=      5-min Rain = 0
KEN1 201835Z 24005KT 10/M03 A3012 RMK A01 T00961033  RH  040%=      5-min Rain = 0
KEN1 201836Z 23006KT 10/M03 A3012 RMK A01 T00971032  RH  040%=      5-min Rain = 0
KEN1 201837Z 24005KT 10/M03 A3012 RMK A01 T00981033  RH  040%=      5-min Rain = 0
KEN1 201838Z 25005KT 10/M04 A3012 RMK A01 T00981035  RH  039%=      5-min Rain = 0
KEN1 201839Z 25005KT 10/M03 A3012 RMK A01 T00981032  RH  040%=      5-min Rain = 0
KEN1 201840Z 24004KT 10/M04 A3012 RMK A01 T00971036  RH  039%=      5-min Rain = 0
KEN1 201841Z 24006KT 10/M04 A3012 RMK A01 T00961037  RH  039%=      5-min Rain = 0
KEN1 201842Z 23007KT 10/M04 A3012 RMK A01 T00971036  RH  039%=      5-min Rain = 0
KEN1 201843Z 21006KT 10/M03 A3012 RMK A01 T00971033  RH  040%=      5-min Rain = 0
KEN1 201844Z 21005KT 10/M03 A3012 RMK A01 T00981033  RH  040%=      5-min Rain = 0
KEN1 201845Z 21004KT 10/M03 A3012 RMK A01 T00981032  RH  040%=      5-min Rain = 0
KEN1 201846Z 23005KT 10/M03 A3012 RMK A01 T01001029  RH  040%=      5-min Rain = 0
KEN1 201847Z 23005KT 10/M03 A3012 RMK A01 T01011032  RH  039%=      5-min Rain = 0
KEN1 201848Z 23005KT 10/M03 A3012 RMK A01 T01001032  RH  039%=      5-min Rain = 0
KEN1 201849Z 22004KT 10/M03 A3012 RMK A01 T01011034  RH  039%=      5-min Rain = 0
KEN1 201850Z 21004KT 10/M04 A3012 RMK A01 T01001036  RH  038%=      5-min Rain = 0
KEN1 201851Z 23005KT 10/M04 A3012 RMK A01 T01001037  RH  038%=      5-min Rain = 0
KEN1 201852Z 23006KT 10/M04 A3012 RMK A01 T01011037  RH  038%=      5-min Rain = 0
KEN1 201853Z 24005KT 10/M04 A3012 RMK A01 T01011038  RH  037%=      5-min Rain = 0
KEN1 201854Z 24005KT 10/M04 A3012 RMK A01 T01001039  RH  037%=      5-min Rain = 0
KEN1 201855Z 23005KT 10/M04 A3011 RMK A01 T01001038  RH  038%=      5-min Rain = 0
KEN1 201856Z 23005KT 10/M04 A3011 RMK A01 T01011037  RH  038%=      5-min Rain = 0
KEN1 201857Z 23004KT 10/M04 A3011 RMK A01 T01021037  RH  038%=      5-min Rain = 0
KEN1 201858Z 22004KT 10/M04 A3011 RMK A01 T01021037  RH  037%=      5-min Rain = 0
KEN1 201859Z 21004KT 10/M04 A3011 RMK A01 T01031035  RH  038%=      5-min Rain = 0
KEN1 201900Z 22006KT 11/M04 A3011 RMK A01 T01051038  RH  036%=      5-min Rain = 0
KEN1 201901Z 22005KT 11/M04 A3011 RMK A01 T01061036  RH  037%=      5-min Rain = 0
KEN1 201902Z 22005KT 11/M03 A3011 RMK A01 T01081034  RH  037%=      5-min Rain = 0
KEN1 201903Z 24004KT 11/M04 A3011 RMK A01 T01091036  RH  036%=      5-min Rain = 0
KEN1 201904Z 22005KT 11/M04 A3011 RMK A01 T01071037  RH  036%=      5-min Rain = 0
KEN1 201905Z 24003KT 11/M04 A3011 RMK A01 T01071035  RH  037%=      5-min Rain = 0
KEN1 201906Z 24006KT 11/M04 A3011 RMK A01 T01081035  RH  037%=      5-min Rain = 0
KEN1 201907Z 24005KT 11/M04 A3011 RMK A01 T01081036  RH  036%=      5-min Rain = 0
KEN1 201908Z 23004KT 11/M03 A3011 RMK A01 T01091034  RH  036%=      5-min Rain = 0
KEN1 201909Z 23003KT 11/M04 A3011 RMK A01 T01101037  RH  035%=      5-min Rain = 0
KEN1 201910Z 21004KT 11/M04 A3011 RMK A01 T01091036  RH  036%=      5-min Rain = 0
KEN1 201911Z 21004KT 11/M03 A3011 RMK A01 T01101034  RH  036%=      5-min Rain = 0
KEN1 201912Z 25004KT 11/M03 A3011 RMK A01 T01131031  RH  037%=      5-min Rain = 0
KEN1 201913Z 24003KT 11/M03 A3011 RMK A01 T01131034  RH  035%=      5-min Rain = 0
KEN1 201914Z 22003KT 11/M03 A3011 RMK A01 T01141033  RH  036%=      5-min Rain = 0
KEN1 201915Z 26004KT 11/M03 A3011 RMK A01 T01141034  RH  035%=      5-min Rain = 0
KEN1 201916Z 25004KT 11/M04 A3011 RMK A01 T01141036  RH  035%=      5-min Rain = 0
KEN1 201917Z 23004KT 11/M04 A3011 RMK A01 T01131035  RH  035%=      5-min Rain = 0
KEN1 201918Z 22002KT 11/M04 A3011 RMK A01 T01141036  RH  035%=      5-min Rain = 0
KEN1 201919Z 21002KT 11/M04 A301 RMK A01 T01141037  RH  034%=      5-min Rain = 0
KEN1 201920Z 22003KT 12/M04 A301 RMK A01 T01151036  RH  035%=      5-min Rain = 0
KEN1 201921Z 22003KT 12/M03 A301 RMK A01 T01171034  RH  035%=      5-min Rain = 0
KEN1 201922Z 22004KT 12/M03 A301 RMK A01 T01181034  RH  035%=      5-min Rain = 0
KEN1 201923Z 23006KT 12/M03 A301 RMK A01 T01191033  RH  034%=      5-min Rain = 0
KEN1 201924Z 23006KT 12/M04 A301 RMK A01 T01171038  RH  034%=      5-min Rain = 0
KEN1 201925Z 23005KT 12/M04 A301 RMK A01 T01151037  RH  034%=      5-min Rain = 0
KEN1 201926Z 24004KT 12/M04 A301 RMK A01 T01151036  RH  034%=      5-min Rain = 0
KEN1 201927Z 23003KT 12/M04 A301 RMK A01 T01151036  RH  034%=      5-min Rain = 0
KEN1 201928Z 25005KT 12/M04 A3009 RMK A01 T01151036  RH  035%=      5-min Rain = 0
KEN1 201929Z 26005KT 12/M03 A3009 RMK A01 T01151032  RH  036%=      5-min Rain = 0
KEN1 201930Z 24005KT 12/M03 A3009 RMK A01 T01161034  RH  035%=      5-min Rain = 0
KEN1 201931Z 22004KT 12/M03 A3009 RMK A01 T01161034  RH  035%=      5-min Rain = 0
KEN1 201932Z 22004KT 12/M03 A3009 RMK A01 T01161033  RH  035%=      5-min Rain = 0
KEN1 201933Z 25005KT 12/M03 A3009 RMK A01 T01181031  RH  035%=      5-min Rain = 0
KEN1 201934Z 23004KT 12/M03 A3009 RMK A01 T01191034  RH  034%=      5-min Rain = 0
KEN1 201935Z 22004KT 12/M03 A3009 RMK A01 T01181034  RH  034%=      5-min Rain = 0
KEN1 201936Z 23004KT 12/M03 A3009 RMK A01 T01191031  RH  035%=      5-min Rain = 0
KEN1 201937Z 20003KT 12/M03 A3009 RMK A01 T01211031  RH  035%=      5-min Rain = 0
KEN1 201938Z 23003KT 12/M03 A3009 RMK A01 T01211030  RH  035%=      5-min Rain = 0
KEN1 201939Z 24003KT 12/M03 A3009 RMK A01 T01231031  RH  034%=      5-min Rain = 0
KEN1 201940Z 22001KT 12/M04 A3009 RMK A01 T01221035  RH  033%=      5-min Rain = 0
KEN1 201941Z 27001KT 12/M03 A3009 RMK A01 T01221033  RH  034%=      5-min Rain = 0
KEN1 201942Z 30002KT 12/M03 A3009 RMK A01 T01221033  RH  034%=      5-min Rain = 0
KEN1 201943Z 25002KT 12/M03 A3008 RMK A01 T01231034  RH  033%=      5-min Rain = 0
KEN1 201944Z 23004KT 12/M03 A3008 RMK A01 T01231034  RH  033%=      5-min Rain = 0
KEN1 201945Z 26004KT 12/M03 A3008 RMK A01 T01231030  RH  034%=      5-min Rain = 0
KEN1 201946Z 25005KT 13/M03 A3008 RMK A01 T01261028  RH  034%=      5-min Rain = 0
KEN1 201947Z 24003KT 13/M03 A3008 RMK A01 T01261032  RH  033%=      5-min Rain = 0
KEN1 201948Z 26003KT 13/M03 A3008 RMK A01 T01251029  RH  034%=      5-min Rain = 0
KEN1 201949Z 25006KT 13/M03 A3008 RMK A01 T01271029  RH  034%=      5-min Rain = 0
KEN1 201950Z 24003KT 13/M03 A3008 RMK A01 T01261032  RH  033%=      5-min Rain = 0
KEN1 201951Z 23002KT 13/M03 A3008 RMK A01 T01251032  RH  033%=      5-min Rain = 0
KEN1 201952Z 26003KT 13/M03 A3008 RMK A01 T01251031  RH  033%=      5-min Rain = 0
KEN1 201953Z 28004KT 13/M03 A3007 RMK A01 T01261029  RH  034%=      5-min Rain = 0
KEN1 201954Z 29003KT 13/M03 A3007 RMK A01 T01271031  RH  033%=      5-min Rain = 0
KEN1 201955Z 29002KT 13/M03 A3007 RMK A01 T01271030  RH  033%=      5-min Rain = 0
KEN1 201956Z 28003KT 13/M03 A3007 RMK A01 T01271031  RH  033%=      5-min Rain = 0
KEN1 201957Z 26004KT 13/M03 A3007 RMK A01 T01271030  RH  033%=      5-min Rain = 0
KEN1 201958Z 25004KT 13/M03 A3007 RMK A01 T01271029  RH  034%=      5-min Rain = 0
KEN1 201959Z 24003KT 13/M03 A3007 RMK A01 T01281028  RH  034%=      5-min Rain = 0
KEN1 202000Z 20000KT 13/M03 A3007 RMK A01 T01281030  RH  033%=      5-min Rain = 0
KEN1 202001Z 21002KT 13/M03 A3007 RMK A01 T01301027  RH  034%=      5-min Rain = 0
KEN1 202002Z 21004KT 13/M03 A3007 RMK A01 T01321029  RH  033%=      5-min Rain = 0
KEN1 202003Z 21001KT 13/M03 A3007 RMK A01 T01311031  RH  032%=      5-min Rain = 0
KEN1 202004Z 20003KT 13/M03 A3007 RMK A01 T01321030  RH  032%=      5-min Rain = 0
KEN1 202005Z 19004KT 13/M03 A3006 RMK A01 T01331027  RH  033%=      5-min Rain = 0
KEN1 202006Z 19003KT 14/M03 A3006 RMK A01 T01351029  RH  032%=      5-min Rain = 0
KEN1 202007Z 20001KT 13/M03 A3006 RMK A01 T01341029  RH  032%=      5-min Rain = 0
KEN1 202008Z 18000KT 14/M03 A3006 RMK A01 T01361027  RH  032%=      5-min Rain = 0
KEN1 202009Z 19002KT 14/M03 A3006 RMK A01 T01391027  RH  032%=      5-min Rain = 0
KEN1 202010Z 18002KT 14/M03 A3006 RMK A01 T01421026  RH  031%=      5-min Rain = 0
KEN1 202011Z 23003KT 14/M03 A3006 RMK A01 T01421026  RH  031%=      5-min Rain = 0
KEN1 202012Z 20002KT 14/M03 A3006 RMK A01 T01421026  RH  031%=      5-min Rain = 0
KEN1 202013Z 25002KT 14/M03 A3006 RMK A01 T01411025  RH  032%=      5-min Rain = 0
KEN1 202014Z 22002KT 14/M03 A3006 RMK A01 T01411026  RH  031%=      5-min Rain = 0
KEN1 202015Z 21003KT 14/M03 A3006 RMK A01 T01411027  RH  031%=      5-min Rain = 0
KEN1 202016Z 19004KT 14/M03 A3006 RMK A01 T01421026  RH  031%=      5-min Rain = 0
KEN1 202017Z 18003KT 14/M02 A3006 RMK A01 T01411024  RH  032%=      5-min Rain = 0
KEN1 202018Z 17003KT 14/M03 A3006 RMK A01 T01411025  RH  032%=      5-min Rain = 0
KEN1 202019Z 17004KT 14/M02 A3006 RMK A01 T01431021  RH  032%=      5-min Rain = 0
KEN1 202020Z 18005KT 15/M02 A3006 RMK A01 T01451019  RH  032%=      5-min Rain = 0
KEN1 202021Z 21006KT 15/M02 A3006 RMK A01 T01471019  RH  032%=      5-min Rain = 0
KEN1 202022Z 21004KT 15/M02 A3006 RMK A01 T01471021  RH  031%=      5-min Rain = 0
KEN1 202023Z 20003KT 15/M02 A3006 RMK A01 T01451021  RH  032%=      5-min Rain = 0
KEN1 202024Z 18003KT 15/M02 A3006 RMK A01 T01451023  RH  031%=      5-min Rain = 0
KEN1 202025Z 19003KT 14/M02 A3006 RMK A01 T01441023  RH  031%=      5-min Rain = 0
KEN1 202026Z 24002KT 14/M02 A3005 RMK A01 T01431024  RH  032%=      5-min Rain = 0
KEN1 202027Z 21004KT 14/M02 A3005 RMK A01 T01421021  RH  032%=      5-min Rain = 0
KEN1 202028Z 21005KT 15/M02 A3005 RMK A01 T01451018  RH  032%=      5-min Rain = 0
KEN1 202029Z 20005KT 15/M02 A3005 RMK A01 T01451021  RH  032%=      5-min Rain = 0
KEN1 202030Z 18005KT 15/M02 A3005 RMK A01 T01451021  RH  032%=      5-min Rain = 0
KEN1 202031Z 20004KT 15/M02 A3005 RMK A01 T01451020  RH  032%=      5-min Rain = 0
KEN1 202032Z 22002KT 15/M02 A3005 RMK A01 T01451021  RH  032%=      5-min Rain = 0
KEN1 202033Z 19002KT 15/M02 A3005 RMK A01 T01461020  RH  032%=      5-min Rain = 0
KEN1 202034Z 16001KT 15/M02 A3005 RMK A01 T01481019  RH  032%=      5-min Rain = 0
KEN1 202035Z 17002KT 15/M02 A3005 RMK A01 T01511018  RH  031%=      5-min Rain = 0
KEN1 202036Z 15004KT 15/M02 A3005 RMK A01 T01531016  RH  031%=      5-min Rain = 0
KEN1 202037Z 17003KT 15/M02 A3005 RMK A01 T01541018  RH  031%=      5-min Rain = 0
KEN1 202038Z 21003KT 15/M02 A3005 RMK A01 T01541017  RH  031%=      5-min Rain = 0
KEN1 202039Z 24002KT 15/M02 A3004 RMK A01 T01541018  RH  030%=      5-min Rain = 0
KEN1 202040Z 24003KT 15/M02 A3004 RMK A01 T01541019  RH  030%=      5-min Rain = 0
KEN1 202041Z 21005KT 16/M02 A3004 RMK A01 T01551020  RH  030%=      5-min Rain = 0
KEN1 202042Z 22003KT 16/M02 A3004 RMK A01 T01551021  RH  030%=      5-min Rain = 0
KEN1 202043Z 23004KT 15/M02 A3004 RMK A01 T01541021  RH  030%=      5-min Rain = 0
KEN1 202044Z 21002KT 15/M02 A3004 RMK A01 T01531020  RH  030%=      5-min Rain = 0
KEN1 202045Z 18003KT 15/M02 A3004 RMK A01 T01531021  RH  030%=      5-min Rain = 0
KEN1 202046Z 21002KT 15/M02 A3004 RMK A01 T01531022  RH  030%=      5-min Rain = 0
KEN1 202047Z 22002KT 15/M02 A3004 RMK A01 T01531018  RH  031%=      5-min Rain = 0
KEN1 202048Z 21004KT 15/M02 A3004 RMK A01 T01541019  RH  030%=      5-min Rain = 0
KEN1 202049Z 18003KT 16/M02 A3004 RMK A01 T01551020  RH  030%=      5-min Rain = 0
KEN1 202050Z 18003KT 15/M02 A3004 RMK A01 T01541021  RH  030%=      5-min Rain = 0
KEN1 202051Z 21001KT 15/M02 A3004 RMK A01 T01531023  RH  030%=      5-min Rain = 0
KEN1 202052Z 15001KT 15/M02 A3004 RMK A01 T01531022  RH  030%=      5-min Rain = 0
KEN1 202053Z 05000KT 16/M02 A3004 RMK A01 T01551018  RH  030%=      5-min Rain = 0
KEN1 202054Z 24001KT 16/M02 A3004 RMK A01 T01571021  RH  029%=      5-min Rain = 0
KEN1 202055Z 20001KT 16/M02 A3004 RMK A01 T01591018  RH  030%=      5-min Rain = 0
KEN1 202056Z 10000KT 16/M02 A3004 RMK A01 T01601021  RH  029%=      5-min Rain = 0
KEN1 202057Z 11000KT 16/M02 A3004 RMK A01 T01601021  RH  029%=      5-min Rain = 0
KEN1 202058Z 18000KT 16/M02 A3004 RMK A01 T01601021  RH  029%=      5-min Rain = 0
KEN1 202059Z 20001KT 16/M02 A3003 RMK A01 T01601020  RH  029%=      5-min Rain = 0
KEN1 202100Z 19001KT 16/M02 A3003 RMK A01 T01611018  RH  029%=      5-min Rain = 0
KEN1 202101Z 22003KT 16/M02 A3003 RMK A01 T01621017  RH  029%=      5-min Rain = 0
KEN1 202102Z 24003KT 16/M02 A3003 RMK A01 T01621019  RH  029%=      5-min Rain = 0
KEN1 202103Z 26001KT 16/M02 A3003 RMK A01 T01601020  RH  029%=      5-min Rain = 0
KEN1 202104Z 21001KT 16/M02 A3003 RMK A01 T01591017  RH  030%=      5-min Rain = 0
KEN1 202105Z 24003KT 16/M02 A3003 RMK A01 T01601016  RH  030%=      5-min Rain = 0
KEN1 202106Z 24005KT 16/M02 A3003 RMK A01 T01611015  RH  030%=      5-min Rain = 0
KEN1 202107Z 24005KT 16/M02 A3003 RMK A01 T01611017  RH  030%=      5-min Rain = 0
KEN1 202108Z 22005KT 16/M02 A3003 RMK A01 T01601016  RH  030%=      5-min Rain = 0
KEN1 202109Z 21003KT 16/M02 A3003 RMK A01 T01591018  RH  030%=      5-min Rain = 0
KEN1 202110Z 23003KT 16/M02 A3003 RMK A01 T01581019  RH  030%=      5-min Rain = 0
KEN1 202111Z 24002KT 16/M02 A3003 RMK A01 T01581019  RH  030%=      5-min Rain = 0
KEN1 202112Z 24002KT 16/M02 A3003 RMK A01 T01581019  RH  030%=      5-min Rain = 0
KEN1 202113Z 24002KT 16/M02 A3002 RMK A01 T01581017  RH  030%=      5-min Rain = 0
KEN1 202114Z 23002KT 16/M01 A3002 RMK A01 T01601013  RH  031%=      5-min Rain = 0
KEN1 202115Z 23002KT 16/M01 A3002 RMK A01 T01621014  RH  030%=      5-min Rain = 0
KEN1 202116Z 23003KT 16/M02 A3002 RMK A01 T01631017  RH  029%=      5-min Rain = 0
KEN1 202117Z 25003KT 16/M02 A3002 RMK A01 T01621017  RH  029%=      5-min Rain = 0
KEN1 202118Z 28004KT 16/M02 A3002 RMK A01 T01611015  RH  030%=      5-min Rain = 0
KEN1 202119Z 31002KT 16/M02 A3002 RMK A01 T01601017  RH  030%=      5-min Rain = 0
KEN1 202120Z 32002KT 16/M02 A3002 RMK A01 T01591018  RH  030%=      5-min Rain = 0
KEN1 202121Z 33002KT 16/M02 A3002 RMK A01 T01591018  RH  030%=      5-min Rain = 0
KEN1 202122Z 28003KT 16/M02 A3002 RMK A01 T01601015  RH  030%=      5-min Rain = 0
KEN1 202123Z 28003KT 16/M02 A3002 RMK A01 T01611017  RH  030%=      5-min Rain = 0
KEN1 202124Z 27003KT 16/M02 A3002 RMK A01 T01621016  RH  030%=      5-min Rain = 0
KEN1 202125Z 26003KT 16/M02 A3002 RMK A01 T01631017  RH  029%=      5-min Rain = 0
KEN1 202126Z 25002KT 16/M02 A3003 RMK A01 T01631017  RH  029%=      5-min Rain = 0
KEN1 202127Z 29002KT 16/M02 A3003 RMK A01 T01641015  RH  029%=      5-min Rain = 0
KEN1 202128Z 29006KT 16/M02 A3003 RMK A01 T01641015  RH  029%=      5-min Rain = 0
KEN1 202129Z 31007KT 16/M01 A3003 RMK A01 T01641012  RH  030%=      5-min Rain = 0
KEN1 202130Z 30009KT 16/M01 A3003 RMK A01 T01631011  RH  030%=      5-min Rain = 0
KEN1 202131Z 30008KT 16/M01 A3003 RMK A01 T01611012  RH  031%=      5-min Rain = 0
KEN1 202132Z 30008KT 16/M02 A3003 RMK A01 T01591016  RH  030%=      5-min Rain = 0
KEN1 202133Z 31007KT 16/M02 A3003 RMK A01 T01581015  RH  030%=      5-min Rain = 0
KEN1 202134Z 31006KT 16/M02 A3003 RMK A01 T01581015  RH  031%=      5-min Rain = 0
KEN1 202135Z 30008KT 16/M01 A3003 RMK A01 T01591013  RH  031%=      5-min Rain = 0
KEN1 202136Z 30008KT 16/M01 A3003 RMK A01 T01601013  RH  031%=      5-min Rain = 0
KEN1 202137Z 30008KT 16/M01 A3003 RMK A01 T01601014  RH  030%=      5-min Rain = 0
KEN1 202138Z 30008KT 16/M01 A3003 RMK A01 T01601013  RH  030%=      5-min Rain = 0
KEN1 202139Z 30008KT 16/M02 A3003 RMK A01 T01601015  RH  030%=      5-min Rain = 0
KEN1 202140Z 30007KT 16/M02 A3003 RMK A01 T01591015  RH  030%=      5-min Rain = 0
KEN1 202141Z 29006KT 16/M02 A3003 RMK A01 T01591015  RH  030%=      5-min Rain = 0
KEN1 202142Z 29008KT 16/M01 A3003 RMK A01 T01591012  RH  031%=      5-min Rain = 0
KEN1 202143Z 29009KT 16/M02 A3003 RMK A01 T01601015  RH  030%=      5-min Rain = 0
KEN1 202144Z 28006KT 16/M02 A3003 RMK A01 T01591016  RH  030%=      5-min Rain = 0
KEN1 202145Z 28006KT 16/M01 A3003 RMK A01 T01591013  RH  031%=      5-min Rain = 0
KEN1 202146Z 28008KT 16/M02 A3003 RMK A01 T01611015  RH  030%=      5-min Rain = 0
KEN1 202147Z 30007KT 16/M02 A3003 RMK A01 T01601017  RH  030%=      5-min Rain = 0
KEN1 202148Z 29007KT 16/M02 A3003 RMK A01 T01591018  RH  030%=      5-min Rain = 0
KEN1 202149Z 29008KT 16/M02 A3003 RMK A01 T01591015  RH  030%=      5-min Rain = 0
KEN1 202150Z 29007KT 16/M02 A3002 RMK A01 T01581018  RH  030%=      5-min Rain = 0
KEN1 202151Z 30007KT 16/M02 A3002 RMK A01 T01571018  RH  030%=      5-min Rain = 0
KEN1 202152Z 29006KT 16/M02 A3002 RMK A01 T01561019  RH  030%=      5-min Rain = 0
KEN1 202153Z 29006KT 16/M02 A3002 RMK A01 T01551020  RH  030%=      5-min Rain = 0
KEN1 202154Z 30005KT 15/M02 A3002 RMK A01 T01541020  RH  030%=      5-min Rain = 0
KEN1 202155Z 30003KT 15/M02 A3002 RMK A01 T01541022  RH  030%=      5-min Rain = 0
KEN1 202156Z 32004KT 15/M02 A3002 RMK A01 T01531021  RH  030%=      5-min Rain = 0
KEN1 202157Z 30004KT 15/M02 A3002 RMK A01 T01541019  RH  030%=      5-min Rain = 0
KEN1 202158Z 30005KT 15/M02 A3002 RMK A01 T01541019  RH  030%=      5-min Rain = 0
KEN1 202159Z 30004KT 15/M02 A3002 RMK A01 T01541018  RH  031%=      5-min Rain = 0
KEN1 202200Z 29005KT 16/M02 A3002 RMK A01 T01551019  RH  030%=      5-min Rain = 0
KEN1 202201Z 30004KT 16/M02 A3002 RMK A01 T01551020  RH  030%=      5-min Rain = 0
KEN1 202202Z 30003KT 16/M02 A3002 RMK A01 T01551021  RH  030%=      5-min Rain = 0
KEN1 202203Z 29002KT 16/M02 A3002 RMK A01 T01551021  RH  030%=      5-min Rain = 0
KEN1 202204Z 28002KT 16/M02 A3002 RMK A01 T01571017  RH  030%=      5-min Rain = 0
KEN1 202205Z 29003KT 16/M02 A3002 RMK A01 T01581018  RH  030%=      5-min Rain = 0
KEN1 202206Z 30003KT 16/M02 A3002 RMK A01 T01581021  RH  029%=      5-min Rain = 0
KEN1 202207Z 29001KT 16/M02 A3002 RMK A01 T01571021  RH  029%=      5-min Rain = 0
KEN1 202208Z 29003KT 16/M02 A3002 RMK A01 T01581017  RH  030%=      5-min Rain = 0
KEN1 202209Z 26003KT 16/M02 A3002 RMK A01 T01591020  RH  029%=      5-min Rain = 0
KEN1 202210Z 26001KT 16/M02 A3002 RMK A01 T01581020  RH  029%=      5-min Rain = 0
KEN1 202211Z 27002KT 16/M02 A3002 RMK A01 T01581021  RH  029%=      5-min Rain = 0
KEN1 202212Z 28001KT 16/M02 A3002 RMK A01 T01581022  RH  029%=      5-min Rain = 0
KEN1 202213Z 27001KT 16/M02 A3002 RMK A01 T01591020  RH  029%=      5-min Rain = 0
KEN1 202214Z 30000KT 16/M02 A3002 RMK A01 T01611020  RH  029%=      5-min Rain = 0
KEN1 202215Z 30002KT 16/M02 A3002 RMK A01 T01621018  RH  029%=      5-min Rain = 0
KEN1 202216Z 31002KT 16/M02 A3002 RMK A01 T01621018  RH  029%=      5-min Rain = 0
KEN1 202217Z 32003KT 16/M02 A3002 RMK A01 T01621016  RH  029%=      5-min Rain = 0
KEN1 202218Z 31003KT 16/M02 A3001 RMK A01 T01611018  RH  029%=      5-min Rain = 0
KEN1 202219Z 31003KT 16/M02 A3001 RMK A01 T01591019  RH  029%=      5-min Rain = 0
KEN1 202220Z 31002KT 16/M02 A3001 RMK A01 T01591019  RH  030%=      5-min Rain = 0
KEN1 202221Z 30002KT 16/M02 A3001 RMK A01 T01581018  RH  030%=      5-min Rain = 0
KEN1 202222Z 31002KT 16/M02 A3001 RMK A01 T01591019  RH  029%=      5-min Rain = 0
KEN1 202223Z 28000KT 16/M02 A3001 RMK A01 T01581023  RH  029%=      5-min Rain = 0
KEN1 202224Z 31000KT 16/M02 A3001 RMK A01 T01571022  RH  029%=      5-min Rain = 0
KEN1 202225Z 33001KT 16/M02 A3001 RMK A01 T01571021  RH  029%=      5-min Rain = 0
KEN1 202226Z 32002KT 16/M02 A3001 RMK A01 T01571021  RH  029%=      5-min Rain = 0
KEN1 202227Z 34002KT 16/M02 A3001 RMK A01 T01571021  RH  029%=      5-min Rain = 0
KEN1 202228Z 36002KT 16/M02 A3001 RMK A01 T01561019  RH  030%=      5-min Rain = 0
KEN1 202229Z 01001KT 16/M02 A3001 RMK A01 T01561021  RH  030%=      5-min Rain = 0
KEN1 202230Z 00001KT 16/M02 A3001 RMK A01 T01561020  RH  030%=      5-min Rain = 0
KEN1 202231Z 35001KT 16/M02 A3001 RMK A01 T01561023  RH  029%=      5-min Rain = 0
KEN1 202232Z 02001KT 16/M02 A3001 RMK A01 T01561023  RH  029%=      5-min Rain = 0
KEN1 202233Z 03001KT 16/M02 A3001 RMK A01 T01561022  RH  029%=      5-min Rain = 0
KEN1 202234Z 35001KT 16/M02 A3001 RMK A01 T01571020  RH  030%=      5-min Rain = 0
KEN1 202235Z 35003KT 16/M02 A3001 RMK A01 T01571018  RH  030%=      5-min Rain = 0
KEN1 202236Z 36003KT 16/M02 A3001 RMK A01 T01571019  RH  030%=      5-min Rain = 0
KEN1 202237Z 34002KT 16/M02 A3001 RMK A01 T01571019  RH  030%=      5-min Rain = 0
KEN1 202238Z 34002KT 16/M02 A30 RMK A01 T01561020  RH  030%=      5-min Rain = 0
KEN1 202239Z 35002KT 16/M02 A30 RMK A01 T01561020  RH  030%=      5-min Rain = 0
KEN1 202240Z 35002KT 16/M02 A30 RMK A01 T01551022  RH  030%=      5-min Rain = 0
KEN1 202241Z 35002KT 16/M02 A30 RMK A01 T01551019  RH  030%=      5-min Rain = 0
KEN1 202242Z 00001KT 15/M02 A30 RMK A01 T01541022  RH  030%=      5-min Rain = 0
KEN1 202243Z 01001KT 15/M02 A30 RMK A01 T01541023  RH  029%=      5-min Rain = 0
KEN1 202244Z 01001KT 15/M02 A30 RMK A01 T01541022  RH  030%=      5-min Rain = 0
KEN1 202245Z 00002KT 15/M02 A30 RMK A01 T01541018  RH  031%=      5-min Rain = 0
KEN1 202246Z 00003KT 15/M02 A30 RMK A01 T01541019  RH  030%=      5-min Rain = 0
KEN1 202247Z 04002KT 15/M02 A30 RMK A01 T01541019  RH  030%=      5-min Rain = 0
KEN1 202248Z 03001KT 15/M02 A30 RMK A01 T01541017  RH  031%=      5-min Rain = 0
KEN1 202249Z 03002KT 15/M02 A30 RMK A01 T01541020  RH  030%=      5-min Rain = 0
KEN1 202250Z 05002KT 16/M02 A30 RMK A01 T01551021  RH  030%=      5-min Rain = 0
KEN1 202251Z 04002KT 15/M02 A30 RMK A01 T01541021  RH  030%=      5-min Rain = 0
KEN1 202252Z 02002KT 16/M02 A30 RMK A01 T01551021  RH  030%=      5-min Rain = 0
KEN1 202253Z 03002KT 16/M02 A30 RMK A01 T01551021  RH  030%=      5-min Rain = 0
KEN1 202254Z 03002KT 15/M02 A30 RMK A01 T01541018  RH  031%=      5-min Rain = 0
KEN1 202255Z 03002KT 15/M02 A30 RMK A01 T01541020  RH  030%=      5-min Rain = 0
KEN1 202256Z 02003KT 15/M02 A30 RMK A01 T01541021  RH  030%=      5-min Rain = 0
KEN1 202257Z 02003KT 15/M02 A30 RMK A01 T01541021  RH  030%=      5-min Rain = 0
KEN1 202258Z 03003KT 15/M02 A30 RMK A01 T01541020  RH  030%=      5-min Rain = 0
KEN1 202259Z 04003KT 15/M02 A30 RMK A01 T01541021  RH  030%=      5-min Rain = 0
KEN1 202300Z 04002KT 15/M02 A30 RMK A01 T01541020  RH  030%=      5-min Rain = 0
KEN1 202301Z 03002KT 15/M02 A30 RMK A01 T01541019  RH  030%=      5-min Rain = 0
KEN1 202302Z 04002KT 15/M02 A30 RMK A01 T01541020  RH  030%=      5-min Rain = 0
KEN1 202303Z 03002KT 15/M02 A30 RMK A01 T01541020  RH  030%=      5-min Rain = 0
KEN1 202304Z 03003KT 15/M02 A30 RMK A01 T01541021  RH  030%=      5-min Rain = 0
KEN1 202305Z 03003KT 15/M02 A30 RMK A01 T01531022  RH  030%=      5-min Rain = 0
KEN1 202306Z 03003KT 15/M02 A30 RMK A01 T01531022  RH  030%=      5-min Rain = 0
KEN1 202307Z 03003KT 15/M02 A30 RMK A01 T01521021  RH  030%=      5-min Rain = 0
KEN1 202308Z 04003KT 15/M02 A30 RMK A01 T01521020  RH  031%=      5-min Rain = 0
KEN1 202309Z 04003KT 15/M02 A30 RMK A01 T01511020  RH  031%=      5-min Rain = 0
KEN1 202310Z 04003KT 15/M02 A30 RMK A01 T01511021  RH  031%=      5-min Rain = 0
KEN1 202311Z 03003KT 15/M02 A30 RMK A01 T01511021  RH  031%=      5-min Rain = 0
KEN1 202312Z 04003KT 15/M02 A30 RMK A01 T01501020  RH  031%=      5-min Rain = 0
KEN1 202313Z 04003KT 15/M02 A30 RMK A01 T01501019  RH  031%=      5-min Rain = 0
KEN1 202314Z 04003KT 15/M02 A30 RMK A01 T01491019  RH  031%=      5-min Rain = 0
KEN1 202315Z 05003KT 15/M02 A30 RMK A01 T01481019  RH  032%=      5-min Rain = 0
KEN1 202316Z 05003KT 15/M02 A30 RMK A01 T01481019  RH  032%=      5-min Rain = 0
KEN1 202317Z 05003KT 15/M02 A30 RMK A01 T01471020  RH  032%=      5-min Rain = 0
KEN1 202318Z 05003KT 15/M02 A30 RMK A01 T01461021  RH  032%=      5-min Rain = 0
KEN1 202319Z 05003KT 15/M02 A30 RMK A01 T01461021  RH  032%=      5-min Rain = 0
KEN1 202320Z 04003KT 15/M02 A30 RMK A01 T01451021  RH  032%=      5-min Rain = 0
KEN1 202321Z 04003KT 15/M02 A30 RMK A01 T01451021  RH  032%=      5-min Rain = 0
KEN1 202322Z 04003KT 15/M02 A30 RMK A01 T01451020  RH  032%=      5-min Rain = 0
KEN1 202323Z 04003KT 14/M02 A30 RMK A01 T01441021  RH  032%=      5-min Rain = 0
KEN1 202324Z 04003KT 14/M02 A30 RMK A01 T01441021  RH  032%=      5-min Rain = 0
KEN1 202325Z 03004KT 14/M02 A2999 RMK A01 T01441020  RH  032%=      5-min Rain = 0
KEN1 202326Z 03004KT 14/M02 A2999 RMK A01 T01431020  RH  032%=      5-min Rain = 0
KEN1 202327Z 03004KT 14/M02 A2999 RMK A01 T01421019  RH  033%=      5-min Rain = 0
KEN1 202328Z 04004KT 14/M02 A2999 RMK A01 T01421019  RH  033%=      5-min Rain = 0
KEN1 202329Z 04003KT 14/M02 A2999 RMK A01 T01411019  RH  033%=      5-min Rain = 0
KEN1 202330Z 04003KT 14/M02 A2999 RMK A01 T01401018  RH  034%=      5-min Rain = 0
KEN1 202331Z 04004KT 14/M02 A2999 RMK A01 T01391018  RH  034%=      5-min Rain = 0
KEN1 202332Z 04003KT 14/M02 A2999 RMK A01 T01371019  RH  034%=      5-min Rain = 0
KEN1 202333Z 04003KT 14/M02 A2999 RMK A01 T01371019  RH  034%=      5-min Rain = 0
KEN1 202334Z 05003KT 14/M02 A2999 RMK A01 T01351019  RH  034%=      5-min Rain = 0
KEN1 202335Z 05004KT 14/M02 A2999 RMK A01 T01351018  RH  035%=      5-min Rain = 0
KEN1 202336Z 05004KT 13/M02 A2999 RMK A01 T01341019  RH  035%=      5-min Rain = 0
KEN1 202337Z 05004KT 13/M02 A2999 RMK A01 T01341019  RH  035%=      5-min Rain = 0
KEN1 202338Z 05004KT 13/M02 A2999 RMK A01 T01331018  RH  035%=      5-min Rain = 0
KEN1 202339Z 05004KT 13/M02 A2999 RMK A01 T01321018  RH  035%=      5-min Rain = 0
KEN1 202340Z 05004KT 13/M02 A2999 RMK A01 T01301018  RH  036%=      5-min Rain = 0
KEN1 202341Z 05004KT 13/M02 A2999 RMK A01 T01301017  RH  036%=      5-min Rain = 0
KEN1 202342Z 05004KT 13/M02 A2999 RMK A01 T01291016  RH  036%=      5-min Rain = 0
KEN1 202343Z 05004KT 13/M02 A2999 RMK A01 T01281016  RH  037%=      5-min Rain = 0
KEN1 202344Z 06005KT 13/M02 A2999 RMK A01 T01261016  RH  037%=      5-min Rain = 0
KEN1 202345Z 06005KT 13/M02 A2999 RMK A01 T01251016  RH  038%=      5-min Rain = 0
KEN1 202346Z 05005KT 12/M02 A2999 RMK A01 T01231016  RH  038%=      5-min Rain = 0
KEN1 202347Z 05005KT 12/M02 A2999 RMK A01 T01211016  RH  039%=      5-min Rain = 0
KEN1 202348Z 05005KT 12/M02 A2999 RMK A01 T01201015  RH  039%=      5-min Rain = 0
KEN1 202349Z 06005KT 12/M02 A2999 RMK A01 T01181015  RH  040%=      5-min Rain = 0
KEN1 202350Z 06005KT 12/M02 A2999 RMK A01 T01161015  RH  040%=      5-min Rain = 0
KEN1 202351Z 06005KT 12/M02 A2999 RMK A01 T01151015  RH  040%=      5-min Rain = 0
KEN1 202352Z 06005KT 11/M02 A2999 RMK A01 T01141015  RH  041%=      5-min Rain = 0
KEN1 202353Z 06005KT 11/M02 A2999 RMK A01 T01131015  RH  041%=      5-min Rain = 0
KEN1 202354Z 06005KT 11/M02 A2999 RMK A01 T01111016  RH  041%=      5-min Rain = 0
KEN1 202355Z 06005KT 11/M02 A2999 RMK A01 T01101016  RH  041%=      5-min Rain = 0
KEN1 202356Z 06005KT 11/M02 A2999 RMK A01 T01091016  RH  042%=      5-min Rain = 0
KEN1 202357Z 06005KT 11/M02 A2999 RMK A01 T01081016  RH  042%=      5-min Rain = 0
KEN1 202358Z 06004KT 11/M02 A2999 RMK A01 T01071016  RH  042%=      5-min Rain = 0
KEN1 202359Z 07004KT 11/M02 A2999 RMK A01 T01071016  RH  042%=      5-min Rain = 0
KEN1 210000Z 07005KT 11/M02 A2999 RMK A01 T01061017  RH  042%=      5-min Rain = 0
KEN1 210001Z 07005KT 11/M02 A2999 RMK A01 T01051018  RH  042%=      5-min Rain = 0
KEN1 210002Z 07005KT 10/M02 A2999 RMK A01 T01041018  RH  042%=      5-min Rain = 0
KEN1 210003Z 06005KT 10/M02 A2999 RMK A01 T01041019  RH  042%=      5-min Rain = 0
KEN1 210004Z 07005KT 10/M02 A2999 RMK A01 T01031020  RH  042%=      5-min Rain = 0
KEN1 210005Z 07005KT 10/M02 A2999 RMK A01 T01021021  RH  042%=      5-min Rain = 0
KEN1 210006Z 06005KT 10/M02 A2999 RMK A01 T01011022  RH  042%=      5-min Rain = 0
KEN1 210007Z 06005KT 10/M02 A2999 RMK A01 T01011022  RH  042%=      5-min Rain = 0
KEN1 210008Z 06005KT 10/M02 A2999 RMK A01 T01001023  RH  042%=      5-min Rain = 0
KEN1 210009Z 06006KT 10/M02 A2999 RMK A01 T01001023  RH  042%=      5-min Rain = 0
KEN1 210010Z 06006KT 10/M02 A2999 RMK A01 T01001022  RH  042%=      5-min Rain = 0
KEN1 210011Z 06006KT 10/M02 A2998 RMK A01 T00991023  RH  042%=      5-min Rain = 0
KEN1 210012Z 06006KT 10/M02 A2998 RMK A01 T00981023  RH  043%=      5-min Rain = 0
KEN1 210013Z 06006KT 10/M02 A2998 RMK A01 T00971023  RH  043%=      5-min Rain = 0
KEN1 210014Z 06006KT 10/M02 A2998 RMK A01 T00961023  RH  043%=      5-min Rain = 0
KEN1 210015Z 06006KT 10/M02 A2998 RMK A01 T00951023  RH  043%=      5-min Rain = 0
KEN1 210016Z 06006KT 09/M02 A2998 RMK A01 T00941023  RH  044%=      5-min Rain = 0
KEN1 210017Z 06006KT 09/M02 A2998 RMK A01 T00941023  RH  044%=      5-min Rain = 0
KEN1 210018Z 06006KT 09/M02 A2998 RMK A01 T00941023  RH  044%=      5-min Rain = 0
KEN1 210019Z 06006KT 09/M02 A2998 RMK A01 T00931023  RH  044%=      5-min Rain = 0
KEN1 210020Z 06006KT 09/M02 A2998 RMK A01 T00931023  RH  044%=      5-min Rain = 0
KEN1 210021Z 07006KT 09/M02 A2998 RMK A01 T00931023  RH  044%=      5-min Rain = 0
KEN1 210022Z 07006KT 09/M02 A2998 RMK A01 T00931023  RH  044%=      5-min Rain = 0
KEN1 210023Z 07006KT 09/M02 A2998 RMK A01 T00931023  RH  044%=      5-min Rain = 0
KEN1 210024Z 07006KT 09/M02 A2998 RMK A01 T00921023  RH  044%=      5-min Rain = 0
KEN1 210025Z 07006KT 09/M02 A2998 RMK A01 T00921023  RH  044%=      5-min Rain = 0
KEN1 210026Z 07007KT 09/M02 A2998 RMK A01 T00911023  RH  045%=      5-min Rain = 0
KEN1 210027Z 07007KT 09/M02 A2998 RMK A01 T00901024  RH  045%=      5-min Rain = 0
KEN1 210028Z 06007KT 09/M02 A2998 RMK A01 T00901024  RH  045%=      5-min Rain = 0
KEN1 210029Z 06007KT 09/M02 A2998 RMK A01 T00901023  RH  045%=      5-min Rain = 0
KEN1 210030Z 06007KT 09/M02 A2998 RMK A01 T00891022  RH  045%=      5-min Rain = 0
KEN1 210031Z 06007KT 09/M02 A2998 RMK A01 T00881023  RH  046%=      5-min Rain = 0
KEN1 210032Z 06007KT 09/M02 A2998 RMK A01 T00861023  RH  046%=      5-min Rain = 0
KEN1 210033Z 07007KT 09/M02 A2998 RMK A01 T00851023  RH  046%=      5-min Rain = 0
KEN1 210034Z 07007KT 08/M02 A2998 RMK A01 T00841023  RH  047%=      5-min Rain = 0
KEN1 210035Z 07008KT 08/M02 A2998 RMK A01 T00831023  RH  047%=      5-min Rain = 0
KEN1 210036Z 07008KT 08/M02 A2998 RMK A01 T00821023  RH  048%=      5-min Rain = 0
KEN1 210037Z 07008KT 08/M02 A2998 RMK A01 T00811022  RH  048%=      5-min Rain = 0
KEN1 210038Z 07007KT 08/M02 A2998 RMK A01 T00811022  RH  048%=      5-min Rain = 0
KEN1 210039Z 07008KT 08/M02 A2998 RMK A01 T00821020  RH  048%=      5-min Rain = 0
KEN1 210040Z 08008KT 08/M02 A2998 RMK A01 T00841020  RH  048%=      5-min Rain = 0
KEN1 210041Z 07007KT 09/M02 A2998 RMK A01 T00851019  RH  048%=      5-min Rain = 0
KEN1 210042Z 08007KT 09/M02 A2998 RMK A01 T00861019  RH  048%=      5-min Rain = 0
KEN1 210043Z 08007KT 09/M02 A2998 RMK A01 T00871018  RH  047%=      5-min Rain = 0
KEN1 210044Z 08007KT 09/M02 A2998 RMK A01 T00871018  RH  048%=      5-min Rain = 0
KEN1 210045Z 07007KT 09/M02 A2998 RMK A01 T00881016  RH  048%=      5-min Rain = 0
KEN1 210046Z 08006KT 09/M02 A2998 RMK A01 T00891016  RH  048%=      5-min Rain = 0
KEN1 210047Z 08006KT 09/M02 A2998 RMK A01 T00901017  RH  047%=      5-min Rain = 0
KEN1 210048Z 07006KT 09/M02 A2998 RMK A01 T00901018  RH  047%=      5-min Rain = 0
KEN1 210049Z 08006KT 09/M02 A2998 RMK A01 T00901018  RH  047%=      5-min Rain = 0
KEN1 210050Z 08006KT 09/M02 A2998 RMK A01 T00881019  RH  047%=      5-min Rain = 0
KEN1 210051Z 07006KT 09/M02 A2998 RMK A01 T00861019  RH  048%=      5-min Rain = 0
KEN1 210052Z 07005KT 09/M02 A2998 RMK A01 T00861018  RH  048%=      5-min Rain = 0
KEN1 210053Z 07005KT 09/M02 A2998 RMK A01 T00871018  RH  048%=      5-min Rain = 0
KEN1 210054Z 07006KT 09/M02 A2998 RMK A01 T00881017  RH  048%=      5-min Rain = 0
KEN1 210055Z 07006KT 09/M02 A2998 RMK A01 T00891018  RH  047%=      5-min Rain = 0
KEN1 210056Z 07005KT 09/M02 A2998 RMK A01 T00881019  RH  047%=      5-min Rain = 0
KEN1 210057Z 07005KT 09/M02 A2998 RMK A01 T00871019  RH  047%=      5-min Rain = 0
KEN1 210058Z 07006KT 09/M02 A2998 RMK A01 T00871018  RH  048%=      5-min Rain = 0
KEN1 210059Z 07006KT 09/M02 A2998 RMK A01 T00871018  RH  048%=      5-min Rain = 0
KEN1 210100Z 08005KT 09/M02 A2998 RMK A01 T00871019  RH  047%=      5-min Rain = 0
KEN1 210101Z 08005KT 09/M02 A2998 RMK A01 T00861019  RH  048%=      5-min Rain = 0
KEN1 210102Z 09005KT 09/M02 A2998 RMK A01 T00861018  RH  048%=      5-min Rain = 0
KEN1 210103Z 09005KT 09/M02 A2998 RMK A01 T00871017  RH  048%=      5-min Rain = 0
KEN1 210104Z 10005KT 09/M02 A2998 RMK A01 T00891016  RH  048%=      5-min Rain = 0
KEN1 210105Z 10005KT 09/M02 A2997 RMK A01 T00911015  RH  048%=      5-min Rain = 0
KEN1 210106Z 11006KT 09/M01 A2997 RMK A01 T00891014  RH  048%=      5-min Rain = 0
KEN1 210107Z 11006KT 09/M01 A2997 RMK A01 T00871013  RH  050%=      5-min Rain = 0
KEN1 210108Z 11006KT 08/M01 A2997 RMK A01 T00841013  RH  051%=      5-min Rain = 0
KEN1 210109Z 12005KT 08/M01 A2997 RMK A01 T00801013  RH  052%=      5-min Rain = 0
KEN1 210110Z 13005KT 08/M01 A2997 RMK A01 T00791012  RH  052%=      5-min Rain = 0
KEN1 210111Z 13005KT 08/M01 A2997 RMK A01 T00791012  RH  053%=      5-min Rain = 0
KEN1 210112Z 13006KT 08/M01 A2997 RMK A01 T00791011  RH  053%=      5-min Rain = 0
KEN1 210113Z 14006KT 08/M01 A2997 RMK A01 T00791011  RH  053%=      5-min Rain = 0
KEN1 210114Z 14005KT 08/M01 A2997 RMK A01 T00781011  RH  053%=      5-min Rain = 0
KEN1 210115Z 13005KT 08/M01 A2997 RMK A01 T00791011  RH  053%=      5-min Rain = 0
KEN1 210116Z 13006KT 08/M01 A2997 RMK A01 T00781010  RH  054%=      5-min Rain = 0
KEN1 210117Z 13006KT 08/M01 A2997 RMK A01 T00771010  RH  054%=      5-min Rain = 0
KEN1 210118Z 13006KT 08/M01 A2997 RMK A01 T00771010  RH  054%=      5-min Rain = 0
KEN1 210119Z 13006KT 08/M01 A2997 RMK A01 T00761010  RH  054%=      5-min Rain = 0
KEN1 210120Z 14006KT 08/M01 A2997 RMK A01 T00761010  RH  054%=      5-min Rain = 0
KEN1 210121Z 14007KT 08/M01 A2997 RMK A01 T00761009  RH  055%=      5-min Rain = 0
KEN1 210122Z 14007KT 07/M01 A2997 RMK A01 T00731009  RH  056%=      5-min Rain = 0
KEN1 210123Z 14007KT 07/M01 A2997 RMK A01 T00711009  RH  057%=      5-min Rain = 0
KEN1 210124Z 14007KT 07/M01 A2997 RMK A01 T00711008  RH  057%=      5-min Rain = 0
KEN1 210125Z 15008KT 07/M01 A2997 RMK A01 T00711008  RH  057%=      5-min Rain = 0
KEN1 210126Z 14008KT 07/M01 A2997 RMK A01 T00711008  RH  057%=      5-min Rain = 0
KEN1 210127Z 15008KT 07/M01 A2997 RMK A01 T00721008  RH  057%=      5-min Rain = 0
KEN1 210128Z 15007KT 07/M01 A2997 RMK A01 T00721008  RH  057%=      5-min Rain = 0
KEN1 210129Z 15007KT 07/M01 A2997 RMK A01 T00721007  RH  057%=      5-min Rain = 0
KEN1 210130Z 15007KT 07/M01 A2997 RMK A01 T00721007  RH  057%=      5-min Rain = 0
KEN1 210131Z 15007KT 07/M01 A2997 RMK A01 T00711007  RH  058%=      5-min Rain = 0
KEN1 210132Z 16006KT 07/M01 A2997 RMK A01 T00701007  RH  058%=      5-min Rain = 0
KEN1 210133Z 16006KT 07/M01 A2997 RMK A01 T00681007  RH  059%=      5-min Rain = 0
KEN1 210134Z 15007KT 07/M01 A2997 RMK A01 T00661007  RH  060%=      5-min Rain = 0
KEN1 210135Z 16006KT 06/M01 A2997 RMK A01 T00641007  RH  060%=      5-min Rain = 0
KEN1 210136Z 16007KT 06/M01 A2997 RMK A01 T00631007  RH  061%=      5-min Rain = 0
KEN1 210137Z 16007KT 06/M01 A2997 RMK A01 T00611006  RH  062%=      5-min Rain = 0
KEN1 210138Z 17007KT 06/M01 A2997 RMK A01 T00601006  RH  063%=      5-min Rain = 0
KEN1 210139Z 17007KT 06/M01 A2997 RMK A01 T00591005  RH  063%=      5-min Rain = 0
KEN1 210140Z 17006KT 06/M01 A2997 RMK A01 T00591005  RH  064%=      5-min Rain = 0
KEN1 210141Z 17007KT 06/M01 A2997 RMK A01 T00581005  RH  064%=      5-min Rain = 0
KEN1 210142Z 17006KT 06/M01 A2997 RMK A01 T00571005  RH  064%=      5-min Rain = 0
KEN1 210143Z 17006KT 06/M01 A2997 RMK A01 T00561005  RH  065%=      5-min Rain = 0
KEN1 210144Z 18005KT 06/M01 A2997 RMK A01 T00551005  RH  065%=      5-min Rain = 0
KEN1 210145Z 18004KT 05/M01 A2997 RMK A01 T00541005  RH  066%=      5-min Rain = 0
KEN1 210146Z 18004KT 05/M01 A2997 RMK A01 T00531005  RH  066%=      5-min Rain = 0
KEN1 210147Z 18004KT 05/M01 A2997 RMK A01 T00521005  RH  066%=      5-min Rain = 0
KEN1 210148Z 18004KT 05/M01 A2997 RMK A01 T00521006  RH  066%=      5-min Rain = 0
KEN1 210149Z 18005KT 05/M01 A2997 RMK A01 T00521007  RH  066%=      5-min Rain = 0
KEN1 210150Z 18007KT 05/M01 A2997 RMK A01 T00521007  RH  066%=      5-min Rain = 0
KEN1 210151Z 18007KT 05/M01 A2997 RMK A01 T00511007  RH  066%=      5-min Rain = 0
KEN1 210152Z 18007KT 05/M01 A2997 RMK A01 T00521007  RH  066%=      5-min Rain = 0
KEN1 210153Z 18007KT 05/M01 A2997 RMK A01 T00521007  RH  066%=      5-min Rain = 0
KEN1 210154Z 18007KT 05/M01 A2997 RMK A01 T00521007  RH  066%=      5-min Rain = 0
KEN1 210155Z 18007KT 05/M01 A2997 RMK A01 T00511007  RH  066%=      5-min Rain = 0
KEN1 210156Z 18007KT 05/M01 A2997 RMK A01 T00501007  RH  067%=      5-min Rain = 0
KEN1 210157Z 18007KT 05/M01 A2997 RMK A01 T00501006  RH  067%=      5-min Rain = 0
KEN1 210158Z 18008KT 05/M01 A2997 RMK A01 T00501006  RH  067%=      5-min Rain = 0
KEN1 210159Z 18007KT 05/M01 A2997 RMK A01 T00501006  RH  067%=      5-min Rain = 0
KEN1 210200Z 18006KT 05/M01 A2997 RMK A01 T00511006  RH  066%=      5-min Rain = 0
KEN1 210201Z 19007KT 05/M01 A2997 RMK A01 T00521007  RH  066%=      5-min Rain = 0
KEN1 210202Z 19006KT 05/M01 A2997 RMK A01 T00521007  RH  065%=      5-min Rain = 0
KEN1 210203Z 19006KT 05/M01 A2997 RMK A01 T00531007  RH  065%=      5-min Rain = 0
KEN1 210204Z 20006KT 05/M01 A2997 RMK A01 T00541008  RH  064%=      5-min Rain = 0
KEN1 210205Z 20006KT 06/M01 A2997 RMK A01 T00551008  RH  064%=      5-min Rain = 0
KEN1 210206Z 20006KT 06/M01 A2997 RMK A01 T00561008  RH  064%=      5-min Rain = 0
KEN1 210207Z 20006KT 06/M01 A2997 RMK A01 T00561009  RH  063%=      5-min Rain = 0
KEN1 210208Z 20007KT 06/M01 A2997 RMK A01 T00581009  RH  062%=      5-min Rain = 0
KEN1 210209Z 20007KT 06/M01 A2997 RMK A01 T00591009  RH  062%=      5-min Rain = 0
KEN1 210210Z 20006KT 06/M01 A2997 RMK A01 T00601010  RH  061%=      5-min Rain = 0
KEN1 210211Z 20006KT 06/M01 A2997 RMK A01 T00611010  RH  060%=      5-min Rain = 0
KEN1 210212Z 20007KT 06/M01 A2997 RMK A01 T00621010  RH  060%=      5-min Rain = 0
KEN1 210213Z 20007KT 06/M01 A2997 RMK A01 T00631011  RH  059%=      5-min Rain = 0
KEN1 210214Z 20006KT 07/M01 A2997 RMK A01 T00651010  RH  058%=      5-min Rain = 0
KEN1 210215Z 20006KT 07/M01 A2997 RMK A01 T00651011  RH  058%=      5-min Rain = 0
KEN1 210216Z 20006KT 07/M01 A2997 RMK A01 T00651010  RH  058%=      5-min Rain = 0
KEN1 210217Z 20006KT 07/M01 A2997 RMK A01 T00651010  RH  059%=      5-min Rain = 0
KEN1 210218Z 20006KT 06/M01 A2997 RMK A01 T00641010  RH  059%=      5-min Rain = 0
KEN1 210219Z 20006KT 06/M01 A2996 RMK A01 T00631010  RH  060%=      5-min Rain = 0
KEN1 210220Z 20006KT 06/M01 A2996 RMK A01 T00631011  RH  059%=      5-min Rain = 0
KEN1 210221Z 20006KT 06/M01 A2996 RMK A01 T00641011  RH  059%=      5-min Rain = 0
KEN1 210222Z 20007KT 06/M01 A2996 RMK A01 T00641011  RH  059%=      5-min Rain = 0
KEN1 210223Z 20007KT 06/M01 A2996 RMK A01 T00641011  RH  059%=      5-min Rain = 0
KEN1 210224Z 19007KT 06/M01 A2996 RMK A01 T00641012  RH  058%=      5-min Rain = 0
KEN1 210225Z 19006KT 07/M01 A2996 RMK A01 T00651012  RH  058%=      5-min Rain = 0
KEN1 210226Z 19006KT 07/M01 A2996 RMK A01 T00661013  RH  057%=      5-min Rain = 0
KEN1 210227Z 19006KT 07/M01 A2996 RMK A01 T00671014  RH  056%=      5-min Rain = 0
KEN1 210228Z 19006KT 07/M01 A2996 RMK A01 T00691014  RH  055%=      5-min Rain = 0
KEN1 210229Z 19006KT 07/M01 A2996 RMK A01 T00701014  RH  055%=      5-min Rain = 0
KEN1 210230Z 19006KT 07/M01 A2996 RMK A01 T00701013  RH  055%=      5-min Rain = 0
KEN1 210231Z 19006KT 07/M01 A2996 RMK A01 T00691014  RH  056%=      5-min Rain = 0
KEN1 210232Z 19006KT 07/M01 A2996 RMK A01 T00691013  RH  056%=      5-min Rain = 0
KEN1 210233Z 19006KT 07/M01 A2996 RMK A01 T00691013  RH  056%=      5-min Rain = 0
KEN1 210234Z 19006KT 07/M01 A2996 RMK A01 T00711014  RH  055%=      5-min Rain = 0
KEN1 210235Z 19006KT 07/M01 A2996 RMK A01 T00721013  RH  055%=      5-min Rain = 0
KEN1 210236Z 18007KT 07/M01 A2996 RMK A01 T00721013  RH  055%=      5-min Rain = 0
KEN1 210237Z 19007KT 07/M01 A2996 RMK A01 T00721013  RH  055%=      5-min Rain = 0
KEN1 210238Z 19007KT 07/M01 A2996 RMK A01 T00721012  RH  055%=      5-min Rain = 0
KEN1 210239Z 19007KT 07/M01 A2996 RMK A01 T00721012  RH  055%=      5-min Rain = 0
KEN1 210240Z 19007KT 07/M01 A2996 RMK A01 T00731013  RH  055%=      5-min Rain = 0
KEN1 210241Z 19007KT 07/M01 A2996 RMK A01 T00741013  RH  054%=      5-min Rain = 0
KEN1 210242Z 19007KT 07/M01 A2996 RMK A01 T00741012  RH  055%=      5-min Rain = 0
KEN1 210243Z 19007KT 07/M01 A2996 RMK A01 T00731011  RH  055%=      5-min Rain = 0
KEN1 210244Z 19008KT 07/M01 A2996 RMK A01 T00731011  RH  055%=      5-min Rain = 0
KEN1 210245Z 20008KT 07/M01 A2996 RMK A01 T00731012  RH  055%=      5-min Rain = 0
KEN1 210246Z 20008KT 07/M01 A2996 RMK A01 T00731011  RH  055%=      5-min Rain = 0
KEN1 210247Z 20008KT 07/M01 A2996 RMK A01 T00731012  RH  055%=      5-min Rain = 0
KEN1 210248Z 20008KT 07/M01 A2996 RMK A01 T00741012  RH  055%=      5-min Rain = 0
KEN1 210249Z 20008KT 07/M01 A2996 RMK A01 T00741012  RH  055%=      5-min Rain = 0
KEN1 210250Z 21008KT 07/M01 A2996 RMK A01 T00741012  RH  054%=      5-min Rain = 0
KEN1 210251Z 21008KT 07/M01 A2996 RMK A01 T00741012  RH  054%=      5-min Rain = 0
KEN1 210252Z 21009KT 07/M01 A2996 RMK A01 T00741012  RH  055%=      5-min Rain = 0
KEN1 210253Z 21008KT 07/M01 A2996 RMK A01 T00741012  RH  055%=      5-min Rain = 0
KEN1 210254Z 21008KT 07/M01 A2996 RMK A01 T00741011  RH  055%=      5-min Rain = 0
KEN1 210255Z 21008KT 07/M01 A2996 RMK A01 T00731012  RH  055%=      5-min Rain = 0
KEN1 210256Z 21008KT 07/M01 A2996 RMK A01 T00731011  RH  055%=      5-min Rain = 0
KEN1 210257Z 21008KT 07/M01 A2996 RMK A01 T00731012  RH  055%=      5-min Rain = 0
KEN1 210258Z 21008KT 07/M01 A2996 RMK A01 T00731012  RH  055%=      5-min Rain = 0
KEN1 210259Z 21008KT 07/M01 A2996 RMK A01 T00721012  RH  055%=      5-min Rain = 0
KEN1 210300Z 21008KT 07/M01 A2996 RMK A01 T00721012  RH  055%=      5-min Rain = 0
KEN1 210301Z 21008KT 07/M01 A2996 RMK A01 T00711012  RH  055%=      5-min Rain = 0
KEN1 210302Z 21008KT 07/M01 A2996 RMK A01 T00711013  RH  055%=      5-min Rain = 0
KEN1 210303Z 21008KT 07/M01 A2996 RMK A01 T00711013  RH  055%=      5-min Rain = 0
KEN1 210304Z 21008KT 07/M01 A2996 RMK A01 T00701013  RH  055%=      5-min Rain = 0
KEN1 210305Z 21008KT 07/M01 A2996 RMK A01 T00701013  RH  055%=      5-min Rain = 0
KEN1 210306Z 21008KT 07/M01 A2996 RMK A01 T00701013  RH  055%=      5-min Rain = 0
KEN1 210307Z 22009KT 07/M01 A2996 RMK A01 T00691014  RH  056%=      5-min Rain = 0
KEN1 210308Z 22008KT 07/M01 A2996 RMK A01 T00691014  RH  056%=      5-min Rain = 0
KEN1 210309Z 22008KT 07/M01 A2996 RMK A01 T00691014  RH  055%=      5-min Rain = 0
KEN1 210310Z 22008KT 07/M01 A2996 RMK A01 T00691014  RH  055%=      5-min Rain = 0
KEN1 210311Z 22008KT 07/M01 A2996 RMK A01 T00691014  RH  055%=      5-min Rain = 0
KEN1 210312Z 23008KT 07/M02 A2996 RMK A01 T00701015  RH  055%=      5-min Rain = 0
KEN1 210313Z 23008KT 07/M02 A2996 RMK A01 T00711015  RH  054%=      5-min Rain = 0
KEN1 210314Z 23008KT 07/M02 A2996 RMK A01 T00721015  RH  054%=      5-min Rain = 0
KEN1 210315Z 23008KT 07/M02 A2996 RMK A01 T00731015  RH  053%=      5-min Rain = 0
KEN1 210316Z 23008KT 08/M02 A2995 RMK A01 T00761015  RH  053%=      5-min Rain = 0
KEN1 210317Z 23007KT 08/M02 A2995 RMK A01 T00771015  RH  052%=      5-min Rain = 0
KEN1 210318Z 23007KT 08/M02 A2995 RMK A01 T00781015  RH  052%=      5-min Rain = 0
KEN1 210319Z 23007KT 08/M02 A2995 RMK A01 T00771015  RH  052%=      5-min Rain = 0
KEN1 210320Z 24006KT 08/M02 A2995 RMK A01 T00761016  RH  052%=      5-min Rain = 0
KEN1 210321Z 24006KT 07/M02 A2995 RMK A01 T00741016  RH  053%=      5-min Rain = 0
KEN1 210322Z 24005KT 07/M02 A2995 RMK A01 T00721016  RH  054%=      5-min Rain = 0
KEN1 210323Z 24005KT 07/M02 A2995 RMK A01 T00711016  RH  054%=      5-min Rain = 0
KEN1 210324Z 25004KT 07/M02 A2995 RMK A01 T00701016  RH  054%=      5-min Rain = 0
KEN1 210325Z 25005KT 07/M02 A2995 RMK A01 T00691016  RH  054%=      5-min Rain = 0
KEN1 210326Z 23005KT 07/M02 A2995 RMK A01 T00691017  RH  054%=      5-min Rain = 0
KEN1 210327Z 23005KT 07/M02 A2995 RMK A01 T00701016  RH  054%=      5-min Rain = 0
KEN1 210328Z 23006KT 07/M02 A2995 RMK A01 T00701016  RH  054%=      5-min Rain = 0
KEN1 210329Z 22006KT 07/M02 A2995 RMK A01 T00701016  RH  054%=      5-min Rain = 0
KEN1 210330Z 22008KT 07/M02 A2995 RMK A01 T00691016  RH  055%=      5-min Rain = 0
KEN1 210331Z 22008KT 07/M02 A2995 RMK A01 T00681017  RH  055%=      5-min Rain = 0
KEN1 210332Z 22009KT 07/M02 A2995 RMK A01 T00661016  RH  056%=      5-min Rain = 0
KEN1 210333Z 22009KT 06/M02 A2994 RMK A01 T00641016  RH  057%=      5-min Rain = 0
KEN1 210334Z 22010KT 06/M02 A2994 RMK A01 T00631015  RH  057%=      5-min Rain = 0
KEN1 210335Z 22009KT 07/M02 A2994 RMK A01 T00651015  RH  057%=      5-min Rain = 0
KEN1 210336Z 22009KT 07/M01 A2994 RMK A01 T00681014  RH  056%=      5-min Rain = 0
KEN1 210337Z 22009KT 07/M01 A2994 RMK A01 T00701014  RH  055%=      5-min Rain = 0
KEN1 210338Z 22009KT 07/M02 A2994 RMK A01 T00721015  RH  054%=      5-min Rain = 0
KEN1 210339Z 22009KT 08/M01 A2994 RMK A01 T00751014  RH  053%=      5-min Rain = 0
KEN1 210340Z 22009KT 08/M02 A2994 RMK A01 T00771015  RH  052%=      5-min Rain = 0
KEN1 210341Z 22009KT 08/M02 A2994 RMK A01 T00801016  RH  051%=      5-min Rain = 0
KEN1 210342Z 22010KT 08/M02 A2994 RMK A01 T00841016  RH  050%=      5-min Rain = 0
KEN1 210343Z 22009KT 09/M02 A2994 RMK A01 T00861015  RH  049%=      5-min Rain = 0
KEN1 210344Z 22009KT 09/M02 A2994 RMK A01 T00861015  RH  049%=      5-min Rain = 0
KEN1 210345Z 21009KT 09/M02 A2994 RMK A01 T00851015  RH  049%=      5-min Rain = 0
KEN1 210346Z 21009KT 08/M02 A2994 RMK A01 T00831016  RH  050%=      5-min Rain = 0
KEN1 210347Z 21008KT 08/M02 A2994 RMK A01 T00821016  RH  050%=      5-min Rain = 0
KEN1 210348Z 21008KT 08/M02 A2994 RMK A01 T00811017  RH  050%=      5-min Rain = 0
KEN1 210349Z 21008KT 08/M02 A2994 RMK A01 T00781017  RH  051%=      5-min Rain = 0
KEN1 210350Z 21008KT 08/M02 A2994 RMK A01 T00761018  RH  051%=      5-min Rain = 0
KEN1 210351Z 21008KT 08/M02 A2994 RMK A01 T00761018  RH  051%=      5-min Rain = 0
KEN1 210352Z 21007KT 08/M02 A2994 RMK A01 T00761018  RH  051%=      5-min Rain = 0
KEN1 210353Z 21007KT 08/M02 A2994 RMK A01 T00771019  RH  051%=      5-min Rain = 0
KEN1 210354Z 21007KT 08/M02 A2994 RMK A01 T00781019  RH  050%=      5-min Rain = 0
KEN1 210355Z 20007KT 08/M02 A2994 RMK A01 T00781019  RH  050%=      5-min Rain = 0
KEN1 210356Z 21007KT 08/M02 A2994 RMK A01 T00781020  RH  050%=      5-min Rain = 0
KEN1 210357Z 21007KT 08/M02 A2994 RMK A01 T00781020  RH  050%=      5-min Rain = 0
KEN1 210358Z 21007KT 08/M02 A2994 RMK A01 T00781021  RH  050%=      5-min Rain = 0
KEN1 210359Z 20006KT 08/M02 A2994 RMK A01 T00791021  RH  049%=      5-min Rain = 0
KEN1 210400Z 20006KT 08/M02 A2994 RMK A01 T00791022  RH  049%=      5-min Rain = 0
KEN1 210401Z 19006KT 08/M02 A2994 RMK A01 T00801022  RH  048%=      5-min Rain = 0
KEN1 210402Z 18006KT 08/M02 A2994 RMK A01 T00811022  RH  048%=      5-min Rain = 0
KEN1 210403Z 17006KT 08/M02 A2994 RMK A01 T00811022  RH  048%=      5-min Rain = 0
KEN1 210404Z 17006KT 08/M02 A2994 RMK A01 T00791022  RH  049%=      5-min Rain = 0
KEN1 210405Z 17005KT 08/M02 A2994 RMK A01 T00771022  RH  050%=      5-min Rain = 0
KEN1 210406Z 18006KT 08/M02 A2994 RMK A01 T00771021  RH  050%=      5-min Rain = 0
KEN1 210407Z 18007KT 08/M02 A2994 RMK A01 T00781021  RH  049%=      5-min Rain = 0
KEN1 210408Z 18008KT 08/M02 A2994 RMK A01 T00801021  RH  049%=      5-min Rain = 0
KEN1 210409Z 19008G13KT 08/M02 A2994 RMK A01 T00831020  RH  048%=      5-min Rain = 0
KEN1 210410Z 19007KT 09/M02 A2994 RMK A01 T00861021  RH  047%=      5-min Rain = 0
KEN1 210411Z 18008KT 09/M02 A2994 RMK A01 T00861021  RH  047%=      5-min Rain = 0
KEN1 210412Z 18008KT 09/M02 A2994 RMK A01 T00861022  RH  047%=      5-min Rain = 0
KEN1 210413Z 18007KT 09/M02 A2994 RMK A01 T00861022  RH  047%=      5-min Rain = 0
KEN1 210414Z 18008KT 09/M02 A2994 RMK A01 T00861022  RH  047%=      5-min Rain = 0
KEN1 210415Z 17008KT 09/M02 A2994 RMK A01 T00861021  RH  047%=      5-min Rain = 0
KEN1 210416Z 17008KT 08/M02 A2994 RMK A01 T00831022  RH  048%=      5-min Rain = 0
KEN1 210417Z 17007KT 08/M02 A2994 RMK A01 T00811022  RH  048%=      5-min Rain = 0
KEN1 210418Z 17007KT 08/M02 A2994 RMK A01 T00791022  RH  049%=      5-min Rain = 0
KEN1 210419Z 17006KT 08/M02 A2994 RMK A01 T00771022  RH  049%=      5-min Rain = 0
KEN1 210420Z 17007KT 07/M02 A2994 RMK A01 T00741022  RH  050%=      5-min Rain = 0
KEN1 210421Z 17007KT 07/M02 A2994 RMK A01 T00721023  RH  051%=      5-min Rain = 0
KEN1 210422Z 17007KT 07/M02 A2994 RMK A01 T00701022  RH  052%=      5-min Rain = 0
KEN1 210423Z 18007KT 07/M02 A2994 RMK A01 T00691022  RH  052%=      5-min Rain = 0
KEN1 210424Z 18007KT 07/M02 A2994 RMK A01 T00691023  RH  052%=      5-min Rain = 0
KEN1 210425Z 18008KT 07/M02 A2994 RMK A01 T00711022  RH  051%=      5-min Rain = 0
KEN1 210426Z 18008KT 07/M02 A2994 RMK A01 T00721022  RH  051%=      5-min Rain = 0
KEN1 210427Z 19008KT 07/M02 A2994 RMK A01 T00731022  RH  051%=      5-min Rain = 0
KEN1 210428Z 19007KT 07/M02 A2994 RMK A01 T00741023  RH  050%=      5-min Rain = 0
KEN1 210429Z 19007KT 08/M02 A2994 RMK A01 T00761022  RH  050%=      5-min Rain = 0
KEN1 210430Z 19008KT 08/M02 A2994 RMK A01 T00771022  RH  049%=      5-min Rain = 0
KEN1 210431Z 20009KT 08/M02 A2994 RMK A01 T00811022  RH  048%=      5-min Rain = 0
KEN1 210432Z 21008KT 09/M02 A2994 RMK A01 T00871022  RH  046%=      5-min Rain = 0
KEN1 210433Z 22011KT 09/M02 A2994 RMK A01 T00911021  RH  045%=      5-min Rain = 0
KEN1 210434Z 22011KT 10/M02 A2994 RMK A01 T00971020  RH  044%=      5-min Rain = 0
KEN1 210435Z 21010KT 10/M02 A2994 RMK A01 T01021020  RH  042%=      5-min Rain = 0
KEN1 210436Z 21009KT 10/M02 A2994 RMK A01 T01021021  RH  042%=      5-min Rain = 0
KEN1 210437Z 20008KT 10/M02 A2994 RMK A01 T01001023  RH  042%=      5-min Rain = 0
KEN1 210438Z 18007KT 10/M02 A2994 RMK A01 T00951024  RH  043%=      5-min Rain = 0
KEN1 210439Z 18007KT 09/M03 A2993 RMK A01 T00881025  RH  045%=      5-min Rain = 0
KEN1 210440Z 18007KT 08/M03 A2993 RMK A01 T00831025  RH  046%=      5-min Rain = 0
KEN1 210441Z 19007KT 08/M03 A2993 RMK A01 T00811026  RH  047%=      5-min Rain = 0
KEN1 210442Z 19006KT 08/M02 A2994 RMK A01 T00811024  RH  047%=      5-min Rain = 0
KEN1 210443Z 20008KT 08/M02 A2994 RMK A01 T00811024  RH  048%=      5-min Rain = 0
KEN1 210444Z 22007KT 08/M02 A2994 RMK A01 T00811024  RH  048%=      5-min Rain = 0
KEN1 210445Z 22008KT 08/M02 A2994 RMK A01 T00831023  RH  047%=      5-min Rain = 0
KEN1 210446Z 22008KT 09/M02 A2994 RMK A01 T00851022  RH  047%=      5-min Rain = 0
KEN1 210447Z 21008KT 09/M02 A2994 RMK A01 T00851023  RH  047%=      5-min Rain = 0
KEN1 210448Z 20007KT 09/M02 A2994 RMK A01 T00851022  RH  047%=      5-min Rain = 0
KEN1 210449Z 20008KT 08/M02 A2993 RMK A01 T00831023  RH  047%=      5-min Rain = 0
KEN1 210450Z 20008KT 08/M02 A2993 RMK A01 T00811023  RH  048%=      5-min Rain = 0
KEN1 210451Z 20008KT 08/M02 A2993 RMK A01 T00781023  RH  049%=      5-min Rain = 0
KEN1 210452Z 19009KT 07/M02 A2993 RMK A01 T00741023  RH  050%=      5-min Rain = 0
KEN1 210453Z 19009KT 08/M02 A2993 RMK A01 T00761022  RH  050%=      5-min Rain = 0
KEN1 210454Z 18008KT 08/M02 A2993 RMK A01 T00801022  RH  049%=      5-min Rain = 0
KEN1 210455Z 19009KT 08/M02 A2993 RMK A01 T00811022  RH  048%=      5-min Rain = 0
KEN1 210456Z 19009KT 08/M02 A2993 RMK A01 T00831022  RH  047%=      5-min Rain = 0
KEN1 210457Z 19009KT 08/M02 A2993 RMK A01 T00841022  RH  047%=      5-min Rain = 0
KEN1 210458Z 19009KT 09/M02 A2993 RMK A01 T00861021  RH  047%=      5-min Rain = 0
KEN1 210459Z 19009KT 09/M02 A2993 RMK A01 T00881021  RH  046%=      5-min Rain = 0
KEN1 210500Z 19009KT 09/M02 A2993 RMK A01 T00891021  RH  046%=      5-min Rain = 0
KEN1 210501Z 19008KT 09/M02 A2993 RMK A01 T00911020  RH  046%=      5-min Rain = 0
KEN1 210502Z 19008KT 09/M02 A2993 RMK A01 T00931020  RH  045%=      5-min Rain = 0
KEN1 210503Z 19009KT 09/M02 A2993 RMK A01 T00941020  RH  045%=      5-min Rain = 0
KEN1 210504Z 19008KT 10/M02 A2993 RMK A01 T00951020  RH  045%=      5-min Rain = 0
KEN1 210505Z 20008KT 10/M02 A2993 RMK A01 T00951020  RH  045%=      5-min Rain = 0
KEN1 210506Z 20008KT 09/M02 A2993 RMK A01 T00931020  RH  045%=      5-min Rain = 0
KEN1 210507Z 20008KT 09/M02 A2993 RMK A01 T00921019  RH  046%=      5-min Rain = 0
KEN1 210508Z 21007KT 09/M02 A2993 RMK A01 T00921019  RH  046%=      5-min Rain = 0
KEN1 210509Z 21007KT 09/M02 A2993 RMK A01 T00911019  RH  046%=      5-min Rain = 0
KEN1 210510Z 21007KT 09/M02 A2993 RMK A01 T00901018  RH  047%=      5-min Rain = 0
KEN1 210511Z 21007KT 09/M02 A2993 RMK A01 T00891018  RH  047%=      5-min Rain = 0
KEN1 210512Z 21007KT 09/M02 A2993 RMK A01 T00891018  RH  047%=      5-min Rain = 0
KEN1 210513Z 21006KT 09/M02 A2993 RMK A01 T00881018  RH  047%=      5-min Rain = 0
KEN1 210514Z 21007KT 09/M02 A2993 RMK A01 T00871018  RH  048%=      5-min Rain = 0
KEN1 210515Z 21007KT 09/M02 A2993 RMK A01 T00861018  RH  048%=      5-min Rain = 0
KEN1 210516Z 21007KT 09/M02 A2993 RMK A01 T00871018  RH  048%=      5-min Rain = 0
KEN1 210517Z 20005KT 09/M02 A2993 RMK A01 T00871018  RH  048%=      5-min Rain = 0
KEN1 210518Z 20005KT 09/M02 A2993 RMK A01 T00851018  RH  048%=      5-min Rain = 0
KEN1 210519Z 19005KT 08/M02 A2993 RMK A01 T00841018  RH  049%=      5-min Rain = 0
KEN1 210520Z 21005KT 08/M02 A2993 RMK A01 T00821018  RH  049%=      5-min Rain = 0
KEN1 210521Z 20005KT 08/M02 A2993 RMK A01 T00831018  RH  049%=      5-min Rain = 0
KEN1 210522Z 21005KT 08/M02 A2993 RMK A01 T00841018  RH  049%=      5-min Rain = 0
KEN1 210523Z 21004KT 09/M02 A2993 RMK A01 T00851018  RH  048%=      5-min Rain = 0
KEN1 210524Z 21004KT 09/M02 A2993 RMK A01 T00861017  RH  048%=      5-min Rain = 0
KEN1 210525Z 21004KT 09/M02 A2993 RMK A01 T00851018  RH  048%=      5-min Rain = 0
KEN1 210526Z 22004KT 08/M02 A2993 RMK A01 T00831019  RH  049%=      5-min Rain = 0
KEN1 210527Z 22004KT 08/M02 A2993 RMK A01 T00821018  RH  049%=      5-min Rain = 0
KEN1 210528Z 23005KT 08/M02 A2993 RMK A01 T00811018  RH  049%=      5-min Rain = 0
KEN1 210529Z 22005KT 08/M02 A2993 RMK A01 T00801018  RH  050%=      5-min Rain = 0
KEN1 210530Z 21005KT 08/M02 A2993 RMK A01 T00781018  RH  051%=      5-min Rain = 0
KEN1 210531Z 19004KT 08/M02 A2993 RMK A01 T00771018  RH  051%=      5-min Rain = 0
KEN1 210532Z 18005KT 08/M02 A2993 RMK A01 T00761017  RH  051%=      5-min Rain = 0
KEN1 210533Z 18005KT 08/M02 A2993 RMK A01 T00751017  RH  052%=      5-min Rain = 0
KEN1 210534Z 18006KT 08/M02 A2993 RMK A01 T00751016  RH  052%=      5-min Rain = 0
KEN1 210535Z 19007KT 08/M02 A2993 RMK A01 T00761016  RH  052%=      5-min Rain = 0
KEN1 210536Z 19005KT 08/M02 A2993 RMK A01 T00821015  RH  050%=      5-min Rain = 0
KEN1 210537Z 16005KT 08/M02 A2993 RMK A01 T00831017  RH  049%=      5-min Rain = 0
KEN1 210538Z 17005KT 08/M02 A2993 RMK A01 T00771018  RH  051%=      5-min Rain = 0
KEN1 210539Z 18004KT 07/M02 A2993 RMK A01 T00721019  RH  052%=      5-min Rain = 0
KEN1 210540Z 19004KT 07/M02 A2993 RMK A01 T00711018  RH  053%=      5-min Rain = 0
KEN1 210541Z 19004KT 08/M02 A2993 RMK A01 T00751018  RH  052%=      5-min Rain = 0
KEN1 210542Z 20004KT 08/M02 A2993 RMK A01 T00781018  RH  051%=      5-min Rain = 0
KEN1 210543Z 21005KT 08/M02 A2993 RMK A01 T00791019  RH  050%=      5-min Rain = 0
KEN1 210544Z 21005KT 08/M02 A2993 RMK A01 T00821019  RH  049%=      5-min Rain = 0
KEN1 210545Z 22008KT 09/M02 A2993 RMK A01 T00861018  RH  048%=      5-min Rain = 0
KEN1 210546Z 22007KT 09/M02 A2993 RMK A01 T00931017  RH  046%=      5-min Rain = 0
KEN1 210547Z 21007KT 10/M02 A2993 RMK A01 T00951017  RH  046%=      5-min Rain = 0
KEN1 210548Z 22008KT 10/M02 A2993 RMK A01 T00951017  RH  045%=      5-min Rain = 0
KEN1 210549Z 21007KT 10/M02 A2993 RMK A01 T00951018  RH  045%=      5-min Rain = 0
KEN1 210550Z 22008KT 10/M02 A2993 RMK A01 T00951018  RH  045%=      5-min Rain = 0
KEN1 210551Z 22007KT 10/M02 A2993 RMK A01 T00961017  RH  045%=      5-min Rain = 0
KEN1 210552Z 21007KT 10/M02 A2993 RMK A01 T00961017  RH  045%=      5-min Rain = 0
KEN1 210553Z 22008KT 09/M02 A2993 RMK A01 T00941018  RH  045%=      5-min Rain = 0
KEN1 210554Z 22009KT 09/M02 A2993 RMK A01 T00931018  RH  046%=      5-min Rain = 0
KEN1 210555Z 21008KT 09/M02 A2993 RMK A01 T00931018  RH  046%=      5-min Rain = 0
KEN1 210556Z 22008KT 09/M02 A2993 RMK A01 T00921017  RH  046%=      5-min Rain = 0
KEN1 210557Z 22008KT 09/M02 A2993 RMK A01 T00901017  RH  047%=      5-min Rain = 0
KEN1 210558Z 22008KT 09/M02 A2993 RMK A01 T00901016  RH  048%=      5-min Rain = 0
KEN1 210559Z 22009KT 09/M02 A2993 RMK A01 T00891016  RH  048%=      5-min Rain = 0

Page generated in 0.1287 seconds.